<?xml version="1.0" encoding="UTF-8" standalone="no" ?>
<gpx xmlns="http://www.topografix.com/GPX/1/1" xmlns:xsi="http://www.w3.org/2001/XMLSchema-instance" xsi:schemaLocation="http://www.topografix.com/GPX/1/1 http://www.topografix.com/GPX/1/1/gpx.xsd" version="1.1" creator="VisuGPX - https://www.visugpx.com">
  <metadata>
    <name>De Châtel-Guyon au gour de Tazenat *variante* - 6099 - UtagawaVTT.com</name>
  </metadata>
  <trk>
    <name><![CDATA[De Châtel-Guyon au gour de Tazenat *variante* - 6099 - UtagawaVTT.com]]></name>
    <trkseg>
      <trkpt lat="45.92508" lon="3.07064">
        <ele>446</ele>
        <time>2011-10-22T06:00:00Z</time>
      </trkpt>
      <trkpt lat="45.9253" lon="3.07072">
        <ele>447</ele>
        <time>2011-10-22T06:00:09Z</time>
      </trkpt>
      <trkpt lat="45.92554" lon="3.071">
        <ele>442</ele>
        <time>2011-10-22T06:00:21Z</time>
      </trkpt>
      <trkpt lat="45.92583" lon="3.07111">
        <ele>442</ele>
        <time>2011-10-22T06:00:33Z</time>
      </trkpt>
      <trkpt lat="45.92618" lon="3.07116">
        <ele>438</ele>
        <time>2011-10-22T06:00:48Z</time>
      </trkpt>
      <trkpt lat="45.92651" lon="3.07124">
        <ele>437</ele>
        <time>2011-10-22T06:01:01Z</time>
      </trkpt>
      <trkpt lat="45.92676" lon="3.07138">
        <ele>431</ele>
        <time>2011-10-22T06:01:12Z</time>
      </trkpt>
      <trkpt lat="45.927" lon="3.07156">
        <ele>430</ele>
        <time>2011-10-22T06:01:22Z</time>
      </trkpt>
      <trkpt lat="45.92733" lon="3.07159">
        <ele>428</ele>
        <time>2011-10-22T06:01:36Z</time>
      </trkpt>
      <trkpt lat="45.92762" lon="3.0716">
        <ele>427</ele>
        <time>2011-10-22T06:01:47Z</time>
      </trkpt>
      <trkpt lat="45.9279" lon="3.07158">
        <ele>430</ele>
        <time>2011-10-22T06:01:58Z</time>
      </trkpt>
      <trkpt lat="45.9282" lon="3.07154">
        <ele>431</ele>
        <time>2011-10-22T06:02:11Z</time>
      </trkpt>
      <trkpt lat="45.92845" lon="3.07158">
        <ele>434</ele>
        <time>2011-10-22T06:02:21Z</time>
      </trkpt>
      <trkpt lat="45.92855" lon="3.07201">
        <ele>433</ele>
        <time>2011-10-22T06:02:33Z</time>
      </trkpt>
      <trkpt lat="45.92867" lon="3.07243">
        <ele>433</ele>
        <time>2011-10-22T06:02:46Z</time>
      </trkpt>
      <trkpt lat="45.92882" lon="3.07279">
        <ele>429</ele>
        <time>2011-10-22T06:02:58Z</time>
      </trkpt>
      <trkpt lat="45.92897" lon="3.07312">
        <ele>428</ele>
        <time>2011-10-22T06:03:09Z</time>
      </trkpt>
      <trkpt lat="45.92911" lon="3.07346">
        <ele>425</ele>
        <time>2011-10-22T06:03:20Z</time>
      </trkpt>
      <trkpt lat="45.92929" lon="3.07382">
        <ele>426</ele>
        <time>2011-10-22T06:03:32Z</time>
      </trkpt>
      <trkpt lat="45.92949" lon="3.0742">
        <ele>419</ele>
        <time>2011-10-22T06:03:46Z</time>
      </trkpt>
      <trkpt lat="45.92962" lon="3.07455">
        <ele>418</ele>
        <time>2011-10-22T06:03:57Z</time>
      </trkpt>
      <trkpt lat="45.92978" lon="3.07492">
        <ele>416</ele>
        <time>2011-10-22T06:04:09Z</time>
      </trkpt>
      <trkpt lat="45.92991" lon="3.07532">
        <ele>411</ele>
        <time>2011-10-22T06:04:21Z</time>
      </trkpt>
      <trkpt lat="45.93015" lon="3.07561">
        <ele>409</ele>
        <time>2011-10-22T06:04:34Z</time>
      </trkpt>
      <trkpt lat="45.93036" lon="3.07597">
        <ele>407</ele>
        <time>2011-10-22T06:04:47Z</time>
      </trkpt>
      <trkpt lat="45.93047" lon="3.07642">
        <ele>407</ele>
        <time>2011-10-22T06:05:00Z</time>
      </trkpt>
      <trkpt lat="45.93042" lon="3.07682">
        <ele>405</ele>
        <time>2011-10-22T06:05:11Z</time>
      </trkpt>
      <trkpt lat="45.93041" lon="3.07723">
        <ele>404</ele>
        <time>2011-10-22T06:05:23Z</time>
      </trkpt>
      <trkpt lat="45.9304" lon="3.0777">
        <ele>403</ele>
        <time>2011-10-22T06:05:36Z</time>
      </trkpt>
      <trkpt lat="45.93041" lon="3.07813">
        <ele>403</ele>
        <time>2011-10-22T06:05:48Z</time>
      </trkpt>
      <trkpt lat="45.93038" lon="3.07859">
        <ele>402</ele>
        <time>2011-10-22T06:06:01Z</time>
      </trkpt>
      <trkpt lat="45.93037" lon="3.07904">
        <ele>402</ele>
        <time>2011-10-22T06:06:14Z</time>
      </trkpt>
      <trkpt lat="45.93036" lon="3.0795">
        <ele>400</ele>
        <time>2011-10-22T06:06:26Z</time>
      </trkpt>
      <trkpt lat="45.93034" lon="3.07995">
        <ele>400</ele>
        <time>2011-10-22T06:06:39Z</time>
      </trkpt>
      <trkpt lat="45.93031" lon="3.08035">
        <ele>399</ele>
        <time>2011-10-22T06:06:50Z</time>
      </trkpt>
      <trkpt lat="45.9303" lon="3.08074">
        <ele>399</ele>
        <time>2011-10-22T06:07:01Z</time>
      </trkpt>
      <trkpt lat="45.93033" lon="3.08114">
        <ele>397</ele>
        <time>2011-10-22T06:07:12Z</time>
      </trkpt>
      <trkpt lat="45.93039" lon="3.08155">
        <ele>397</ele>
        <time>2011-10-22T06:07:24Z</time>
      </trkpt>
      <trkpt lat="45.93047" lon="3.08194">
        <ele>396</ele>
        <time>2011-10-22T06:07:35Z</time>
      </trkpt>
      <trkpt lat="45.9306" lon="3.08232">
        <ele>395</ele>
        <time>2011-10-22T06:07:47Z</time>
      </trkpt>
      <trkpt lat="45.93072" lon="3.08272">
        <ele>395</ele>
        <time>2011-10-22T06:08:00Z</time>
      </trkpt>
      <trkpt lat="45.93068" lon="3.08313">
        <ele>395</ele>
        <time>2011-10-22T06:08:11Z</time>
      </trkpt>
      <trkpt lat="45.93058" lon="3.08349">
        <ele>395</ele>
        <time>2011-10-22T06:08:22Z</time>
      </trkpt>
      <trkpt lat="45.93052" lon="3.08398">
        <ele>395</ele>
        <time>2011-10-22T06:08:36Z</time>
      </trkpt>
      <trkpt lat="45.93053" lon="3.08439">
        <ele>394</ele>
        <time>2011-10-22T06:08:47Z</time>
      </trkpt>
      <trkpt lat="45.93084" lon="3.08449">
        <ele>393</ele>
        <time>2011-10-22T06:09:00Z</time>
      </trkpt>
      <trkpt lat="45.93111" lon="3.08455">
        <ele>392</ele>
        <time>2011-10-22T06:09:11Z</time>
      </trkpt>
      <trkpt lat="45.93137" lon="3.08468">
        <ele>391</ele>
        <time>2011-10-22T06:09:22Z</time>
      </trkpt>
      <trkpt lat="45.93168" lon="3.0848">
        <ele>389</ele>
        <time>2011-10-22T06:09:35Z</time>
      </trkpt>
      <trkpt lat="45.93196" lon="3.08486">
        <ele>388</ele>
        <time>2011-10-22T06:09:46Z</time>
      </trkpt>
      <trkpt lat="45.93228" lon="3.08491">
        <ele>387</ele>
        <time>2011-10-22T06:09:59Z</time>
      </trkpt>
      <trkpt lat="45.93255" lon="3.08493">
        <ele>384</ele>
        <time>2011-10-22T06:10:10Z</time>
      </trkpt>
      <trkpt lat="45.93286" lon="3.08482">
        <ele>383</ele>
        <time>2011-10-22T06:10:22Z</time>
      </trkpt>
      <trkpt lat="45.93316" lon="3.08463">
        <ele>382</ele>
        <time>2011-10-22T06:10:36Z</time>
      </trkpt>
      <trkpt lat="45.93344" lon="3.0845">
        <ele>380</ele>
        <time>2011-10-22T06:10:48Z</time>
      </trkpt>
      <trkpt lat="45.93349" lon="3.08457">
        <ele>380</ele>
        <time>2011-10-22T06:10:51Z</time>
      </trkpt>
      <trkpt lat="45.93354" lon="3.08482">
        <ele>380</ele>
        <time>2011-10-22T06:10:58Z</time>
      </trkpt>
      <trkpt lat="45.93361" lon="3.08522">
        <ele>379</ele>
        <time>2011-10-22T06:11:09Z</time>
      </trkpt>
      <trkpt lat="45.93376" lon="3.08557">
        <ele>379</ele>
        <time>2011-10-22T06:11:21Z</time>
      </trkpt>
      <trkpt lat="45.93403" lon="3.08553">
        <ele>379</ele>
        <time>2011-10-22T06:11:32Z</time>
      </trkpt>
      <trkpt lat="45.9343" lon="3.08532">
        <ele>378</ele>
        <time>2011-10-22T06:11:44Z</time>
      </trkpt>
      <trkpt lat="45.93459" lon="3.08508">
        <ele>378</ele>
        <time>2011-10-22T06:11:57Z</time>
      </trkpt>
      <trkpt lat="45.93484" lon="3.08484">
        <ele>380</ele>
        <time>2011-10-22T06:12:09Z</time>
      </trkpt>
      <trkpt lat="45.93508" lon="3.08459">
        <ele>384</ele>
        <time>2011-10-22T06:12:21Z</time>
      </trkpt>
      <trkpt lat="45.93533" lon="3.08434">
        <ele>385</ele>
        <time>2011-10-22T06:12:33Z</time>
      </trkpt>
      <trkpt lat="45.93554" lon="3.08402">
        <ele>389</ele>
        <time>2011-10-22T06:12:46Z</time>
      </trkpt>
      <trkpt lat="45.93571" lon="3.0837">
        <ele>390</ele>
        <time>2011-10-22T06:12:57Z</time>
      </trkpt>
      <trkpt lat="45.93593" lon="3.08339">
        <ele>394</ele>
        <time>2011-10-22T06:13:09Z</time>
      </trkpt>
      <trkpt lat="45.93611" lon="3.08308">
        <ele>398</ele>
        <time>2011-10-22T06:13:21Z</time>
      </trkpt>
      <trkpt lat="45.93633" lon="3.08276">
        <ele>400</ele>
        <time>2011-10-22T06:13:33Z</time>
      </trkpt>
      <trkpt lat="45.93638" lon="3.08235">
        <ele>403</ele>
        <time>2011-10-22T06:13:45Z</time>
      </trkpt>
      <trkpt lat="45.9362" lon="3.08201">
        <ele>404</ele>
        <time>2011-10-22T06:13:57Z</time>
      </trkpt>
      <trkpt lat="45.93601" lon="3.08172">
        <ele>404</ele>
        <time>2011-10-22T06:14:08Z</time>
      </trkpt>
      <trkpt lat="45.93609" lon="3.08135">
        <ele>408</ele>
        <time>2011-10-22T06:14:19Z</time>
      </trkpt>
      <trkpt lat="45.93628" lon="3.08099">
        <ele>410</ele>
        <time>2011-10-22T06:14:31Z</time>
      </trkpt>
      <trkpt lat="45.93641" lon="3.08059">
        <ele>414</ele>
        <time>2011-10-22T06:14:43Z</time>
      </trkpt>
      <trkpt lat="45.93641" lon="3.08014">
        <ele>416</ele>
        <time>2011-10-22T06:14:56Z</time>
      </trkpt>
      <trkpt lat="45.93635" lon="3.07975">
        <ele>420</ele>
        <time>2011-10-22T06:15:07Z</time>
      </trkpt>
      <trkpt lat="45.93632" lon="3.07931">
        <ele>421</ele>
        <time>2011-10-22T06:15:19Z</time>
      </trkpt>
      <trkpt lat="45.9363" lon="3.07892">
        <ele>425</ele>
        <time>2011-10-22T06:15:30Z</time>
      </trkpt>
      <trkpt lat="45.93627" lon="3.07849">
        <ele>426</ele>
        <time>2011-10-22T06:15:42Z</time>
      </trkpt>
      <trkpt lat="45.93619" lon="3.07808">
        <ele>431</ele>
        <time>2011-10-22T06:15:54Z</time>
      </trkpt>
      <trkpt lat="45.93606" lon="3.07767">
        <ele>433</ele>
        <time>2011-10-22T06:16:07Z</time>
      </trkpt>
      <trkpt lat="45.93601" lon="3.07727">
        <ele>438</ele>
        <time>2011-10-22T06:16:18Z</time>
      </trkpt>
      <trkpt lat="45.93596" lon="3.07683">
        <ele>440</ele>
        <time>2011-10-22T06:16:30Z</time>
      </trkpt>
      <trkpt lat="45.93579" lon="3.07652">
        <ele>441</ele>
        <time>2011-10-22T06:16:41Z</time>
      </trkpt>
      <trkpt lat="45.93561" lon="3.07615">
        <ele>440</ele>
        <time>2011-10-22T06:16:54Z</time>
      </trkpt>
      <trkpt lat="45.93561" lon="3.07574">
        <ele>441</ele>
        <time>2011-10-22T06:17:05Z</time>
      </trkpt>
      <trkpt lat="45.93577" lon="3.07542">
        <ele>442</ele>
        <time>2011-10-22T06:17:16Z</time>
      </trkpt>
      <trkpt lat="45.93592" lon="3.07508">
        <ele>449</ele>
        <time>2011-10-22T06:17:28Z</time>
      </trkpt>
      <trkpt lat="45.93613" lon="3.07506">
        <ele>450</ele>
        <time>2011-10-22T06:17:36Z</time>
      </trkpt>
      <trkpt lat="45.93639" lon="3.07526">
        <ele>451</ele>
        <time>2011-10-22T06:17:48Z</time>
      </trkpt>
      <trkpt lat="45.93665" lon="3.07541">
        <ele>451</ele>
        <time>2011-10-22T06:17:59Z</time>
      </trkpt>
      <trkpt lat="45.93691" lon="3.07558">
        <ele>456</ele>
        <time>2011-10-22T06:18:10Z</time>
      </trkpt>
      <trkpt lat="45.9372" lon="3.0757">
        <ele>457</ele>
        <time>2011-10-22T06:18:23Z</time>
      </trkpt>
      <trkpt lat="45.93746" lon="3.07592">
        <ele>454</ele>
        <time>2011-10-22T06:18:35Z</time>
      </trkpt>
      <trkpt lat="45.93772" lon="3.07607">
        <ele>457</ele>
        <time>2011-10-22T06:18:46Z</time>
      </trkpt>
      <trkpt lat="45.93785" lon="3.0758">
        <ele>464</ele>
        <time>2011-10-22T06:18:55Z</time>
      </trkpt>
      <trkpt lat="45.93781" lon="3.07534">
        <ele>466</ele>
        <time>2011-10-22T06:19:08Z</time>
      </trkpt>
      <trkpt lat="45.93777" lon="3.07491">
        <ele>474</ele>
        <time>2011-10-22T06:19:20Z</time>
      </trkpt>
      <trkpt lat="45.93764" lon="3.0745">
        <ele>476</ele>
        <time>2011-10-22T06:19:33Z</time>
      </trkpt>
      <trkpt lat="45.93744" lon="3.07419">
        <ele>474</ele>
        <time>2011-10-22T06:19:44Z</time>
      </trkpt>
      <trkpt lat="45.93722" lon="3.07397">
        <ele>477</ele>
        <time>2011-10-22T06:19:55Z</time>
      </trkpt>
      <trkpt lat="45.93697" lon="3.07372">
        <ele>478</ele>
        <time>2011-10-22T06:20:07Z</time>
      </trkpt>
      <trkpt lat="45.93673" lon="3.07351">
        <ele>478</ele>
        <time>2011-10-22T06:20:19Z</time>
      </trkpt>
      <trkpt lat="45.93666" lon="3.07314">
        <ele>476</ele>
        <time>2011-10-22T06:20:29Z</time>
      </trkpt>
      <trkpt lat="45.93666" lon="3.07275">
        <ele>478</ele>
        <time>2011-10-22T06:20:40Z</time>
      </trkpt>
      <trkpt lat="45.93663" lon="3.07234">
        <ele>482</ele>
        <time>2011-10-22T06:20:51Z</time>
      </trkpt>
      <trkpt lat="45.93668" lon="3.07192">
        <ele>493</ele>
        <time>2011-10-22T06:21:03Z</time>
      </trkpt>
      <trkpt lat="45.93677" lon="3.07154">
        <ele>494</ele>
        <time>2011-10-22T06:21:14Z</time>
      </trkpt>
      <trkpt lat="45.93696" lon="3.07119">
        <ele>498</ele>
        <time>2011-10-22T06:21:27Z</time>
      </trkpt>
      <trkpt lat="45.93717" lon="3.07085">
        <ele>501</ele>
        <time>2011-10-22T06:21:40Z</time>
      </trkpt>
      <trkpt lat="45.93739" lon="3.07059">
        <ele>503</ele>
        <time>2011-10-22T06:21:51Z</time>
      </trkpt>
      <trkpt lat="45.93749" lon="3.07035">
        <ele>502</ele>
        <time>2011-10-22T06:21:59Z</time>
      </trkpt>
      <trkpt lat="45.93745" lon="3.07037">
        <ele>502</ele>
        <time>2011-10-22T06:22:00Z</time>
      </trkpt>
      <trkpt lat="45.93766" lon="3.0701">
        <ele>508</ele>
        <time>2011-10-22T06:22:12Z</time>
      </trkpt>
      <trkpt lat="45.93783" lon="3.06977">
        <ele>508</ele>
        <time>2011-10-22T06:22:23Z</time>
      </trkpt>
      <trkpt lat="45.93768" lon="3.06944">
        <ele>506</ele>
        <time>2011-10-22T06:22:34Z</time>
      </trkpt>
      <trkpt lat="45.9376" lon="3.06907">
        <ele>503</ele>
        <time>2011-10-22T06:22:45Z</time>
      </trkpt>
      <trkpt lat="45.9376" lon="3.06928">
        <ele>504</ele>
        <time>2011-10-22T06:22:51Z</time>
      </trkpt>
      <trkpt lat="45.93775" lon="3.06961">
        <ele>507</ele>
        <time>2011-10-22T06:23:02Z</time>
      </trkpt>
      <trkpt lat="45.93774" lon="3.06995">
        <ele>507</ele>
        <time>2011-10-22T06:23:11Z</time>
      </trkpt>
      <trkpt lat="45.93758" lon="3.0703">
        <ele>509</ele>
        <time>2011-10-22T06:23:23Z</time>
      </trkpt>
      <trkpt lat="45.9377" lon="3.07052">
        <ele>509</ele>
        <time>2011-10-22T06:23:31Z</time>
      </trkpt>
      <trkpt lat="45.93798" lon="3.07053">
        <ele>510</ele>
        <time>2011-10-22T06:23:42Z</time>
      </trkpt>
      <trkpt lat="45.93828" lon="3.07054">
        <ele>511</ele>
        <time>2011-10-22T06:23:54Z</time>
      </trkpt>
      <trkpt lat="45.93851" lon="3.07037">
        <ele>515</ele>
        <time>2011-10-22T06:24:05Z</time>
      </trkpt>
      <trkpt lat="45.93862" lon="3.06996">
        <ele>515</ele>
        <time>2011-10-22T06:24:17Z</time>
      </trkpt>
      <trkpt lat="45.93874" lon="3.06957">
        <ele>516</ele>
        <time>2011-10-22T06:24:29Z</time>
      </trkpt>
      <trkpt lat="45.93889" lon="3.06916">
        <ele>519</ele>
        <time>2011-10-22T06:24:42Z</time>
      </trkpt>
      <trkpt lat="45.93892" lon="3.0687">
        <ele>520</ele>
        <time>2011-10-22T06:24:54Z</time>
      </trkpt>
      <trkpt lat="45.93898" lon="3.06831">
        <ele>523</ele>
        <time>2011-10-22T06:25:06Z</time>
      </trkpt>
      <trkpt lat="45.93903" lon="3.06788">
        <ele>523</ele>
        <time>2011-10-22T06:25:18Z</time>
      </trkpt>
      <trkpt lat="45.93912" lon="3.06751">
        <ele>527</ele>
        <time>2011-10-22T06:25:29Z</time>
      </trkpt>
      <trkpt lat="45.93922" lon="3.06714">
        <ele>533</ele>
        <time>2011-10-22T06:25:40Z</time>
      </trkpt>
      <trkpt lat="45.93937" lon="3.06677">
        <ele>533</ele>
        <time>2011-10-22T06:25:52Z</time>
      </trkpt>
      <trkpt lat="45.93961" lon="3.06648">
        <ele>537</ele>
        <time>2011-10-22T06:26:04Z</time>
      </trkpt>
      <trkpt lat="45.93978" lon="3.06618">
        <ele>539</ele>
        <time>2011-10-22T06:26:15Z</time>
      </trkpt>
      <trkpt lat="45.9399" lon="3.06578">
        <ele>545</ele>
        <time>2011-10-22T06:26:27Z</time>
      </trkpt>
      <trkpt lat="45.93999" lon="3.06535">
        <ele>542</ele>
        <time>2011-10-22T06:26:39Z</time>
      </trkpt>
      <trkpt lat="45.94009" lon="3.06493">
        <ele>552</ele>
        <time>2011-10-22T06:26:52Z</time>
      </trkpt>
      <trkpt lat="45.94012" lon="3.06454">
        <ele>555</ele>
        <time>2011-10-22T06:27:03Z</time>
      </trkpt>
      <trkpt lat="45.94009" lon="3.06416">
        <ele>557</ele>
        <time>2011-10-22T06:27:14Z</time>
      </trkpt>
      <trkpt lat="45.94013" lon="3.06373">
        <ele>562</ele>
        <time>2011-10-22T06:27:26Z</time>
      </trkpt>
      <trkpt lat="45.94027" lon="3.06335">
        <ele>563</ele>
        <time>2011-10-22T06:27:37Z</time>
      </trkpt>
      <trkpt lat="45.94042" lon="3.06298">
        <ele>567</ele>
        <time>2011-10-22T06:27:50Z</time>
      </trkpt>
      <trkpt lat="45.94066" lon="3.06272">
        <ele>570</ele>
        <time>2011-10-22T06:28:02Z</time>
      </trkpt>
      <trkpt lat="45.94088" lon="3.06252">
        <ele>577</ele>
        <time>2011-10-22T06:28:12Z</time>
      </trkpt>
      <trkpt lat="45.94106" lon="3.06221">
        <ele>582</ele>
        <time>2011-10-22T06:28:23Z</time>
      </trkpt>
      <trkpt lat="45.94114" lon="3.06177">
        <ele>584</ele>
        <time>2011-10-22T06:28:36Z</time>
      </trkpt>
      <trkpt lat="45.94117" lon="3.06133">
        <ele>590</ele>
        <time>2011-10-22T06:28:48Z</time>
      </trkpt>
      <trkpt lat="45.94114" lon="3.06094">
        <ele>591</ele>
        <time>2011-10-22T06:28:59Z</time>
      </trkpt>
      <trkpt lat="45.94111" lon="3.06051">
        <ele>597</ele>
        <time>2011-10-22T06:29:11Z</time>
      </trkpt>
      <trkpt lat="45.94101" lon="3.06006">
        <ele>599</ele>
        <time>2011-10-22T06:29:24Z</time>
      </trkpt>
      <trkpt lat="45.94104" lon="3.05964">
        <ele>604</ele>
        <time>2011-10-22T06:29:36Z</time>
      </trkpt>
      <trkpt lat="45.94095" lon="3.05927">
        <ele>605</ele>
        <time>2011-10-22T06:29:47Z</time>
      </trkpt>
      <trkpt lat="45.94093" lon="3.05882">
        <ele>609</ele>
        <time>2011-10-22T06:30:00Z</time>
      </trkpt>
      <trkpt lat="45.94072" lon="3.05848">
        <ele>610</ele>
        <time>2011-10-22T06:30:12Z</time>
      </trkpt>
      <trkpt lat="45.94066" lon="3.0581">
        <ele>614</ele>
        <time>2011-10-22T06:30:23Z</time>
      </trkpt>
      <trkpt lat="45.94057" lon="3.05768">
        <ele>616</ele>
        <time>2011-10-22T06:30:35Z</time>
      </trkpt>
      <trkpt lat="45.94047" lon="3.05722">
        <ele>619</ele>
        <time>2011-10-22T06:30:49Z</time>
      </trkpt>
      <trkpt lat="45.94031" lon="3.05692">
        <ele>620</ele>
        <time>2011-10-22T06:30:59Z</time>
      </trkpt>
      <trkpt lat="45.94028" lon="3.05653">
        <ele>622</ele>
        <time>2011-10-22T06:31:10Z</time>
      </trkpt>
      <trkpt lat="45.94018" lon="3.05612">
        <ele>622</ele>
        <time>2011-10-22T06:31:22Z</time>
      </trkpt>
      <trkpt lat="45.94003" lon="3.05576">
        <ele>622</ele>
        <time>2011-10-22T06:31:34Z</time>
      </trkpt>
      <trkpt lat="45.93995" lon="3.05533">
        <ele>624</ele>
        <time>2011-10-22T06:31:46Z</time>
      </trkpt>
      <trkpt lat="45.93979" lon="3.05496">
        <ele>623</ele>
        <time>2011-10-22T06:31:58Z</time>
      </trkpt>
      <trkpt lat="45.93966" lon="3.05453">
        <ele>623</ele>
        <time>2011-10-22T06:32:11Z</time>
      </trkpt>
      <trkpt lat="45.93955" lon="3.05415">
        <ele>620</ele>
        <time>2011-10-22T06:32:23Z</time>
      </trkpt>
      <trkpt lat="45.93941" lon="3.05379">
        <ele>621</ele>
        <time>2011-10-22T06:32:34Z</time>
      </trkpt>
      <trkpt lat="45.93938" lon="3.05335">
        <ele>621</ele>
        <time>2011-10-22T06:32:47Z</time>
      </trkpt>
      <trkpt lat="45.93929" lon="3.05296">
        <ele>621</ele>
        <time>2011-10-22T06:32:58Z</time>
      </trkpt>
      <trkpt lat="45.93924" lon="3.05252">
        <ele>623</ele>
        <time>2011-10-22T06:33:10Z</time>
      </trkpt>
      <trkpt lat="45.93916" lon="3.05213">
        <ele>624</ele>
        <time>2011-10-22T06:33:22Z</time>
      </trkpt>
      <trkpt lat="45.93901" lon="3.05172">
        <ele>627</ele>
        <time>2011-10-22T06:33:35Z</time>
      </trkpt>
      <trkpt lat="45.93908" lon="3.05132">
        <ele>631</ele>
        <time>2011-10-22T06:33:46Z</time>
      </trkpt>
      <trkpt lat="45.93903" lon="3.05094">
        <ele>635</ele>
        <time>2011-10-22T06:33:57Z</time>
      </trkpt>
      <trkpt lat="45.93883" lon="3.05069">
        <ele>637</ele>
        <time>2011-10-22T06:34:07Z</time>
      </trkpt>
      <trkpt lat="45.93871" lon="3.0503">
        <ele>637</ele>
        <time>2011-10-22T06:34:19Z</time>
      </trkpt>
      <trkpt lat="45.93856" lon="3.04996">
        <ele>638</ele>
        <time>2011-10-22T06:34:31Z</time>
      </trkpt>
      <trkpt lat="45.93852" lon="3.04957">
        <ele>639</ele>
        <time>2011-10-22T06:34:42Z</time>
      </trkpt>
      <trkpt lat="45.93853" lon="3.04909">
        <ele>641</ele>
        <time>2011-10-22T06:34:55Z</time>
      </trkpt>
      <trkpt lat="45.93851" lon="3.04868">
        <ele>641</ele>
        <time>2011-10-22T06:35:06Z</time>
      </trkpt>
      <trkpt lat="45.93846" lon="3.04822">
        <ele>640</ele>
        <time>2011-10-22T06:35:19Z</time>
      </trkpt>
      <trkpt lat="45.93844" lon="3.0478">
        <ele>639</ele>
        <time>2011-10-22T06:35:31Z</time>
      </trkpt>
      <trkpt lat="45.93835" lon="3.04744">
        <ele>638</ele>
        <time>2011-10-22T06:35:42Z</time>
      </trkpt>
      <trkpt lat="45.93826" lon="3.04707">
        <ele>637</ele>
        <time>2011-10-22T06:35:52Z</time>
      </trkpt>
      <trkpt lat="45.9382" lon="3.04665">
        <ele>636</ele>
        <time>2011-10-22T06:36:04Z</time>
      </trkpt>
      <trkpt lat="45.93814" lon="3.04624">
        <ele>636</ele>
        <time>2011-10-22T06:36:16Z</time>
      </trkpt>
      <trkpt lat="45.93808" lon="3.04586">
        <ele>636</ele>
        <time>2011-10-22T06:36:27Z</time>
      </trkpt>
      <trkpt lat="45.938" lon="3.04544">
        <ele>637</ele>
        <time>2011-10-22T06:36:39Z</time>
      </trkpt>
      <trkpt lat="45.93789" lon="3.04499">
        <ele>640</ele>
        <time>2011-10-22T06:36:52Z</time>
      </trkpt>
      <trkpt lat="45.9378" lon="3.04459">
        <ele>640</ele>
        <time>2011-10-22T06:37:04Z</time>
      </trkpt>
      <trkpt lat="45.93775" lon="3.04418">
        <ele>640</ele>
        <time>2011-10-22T06:37:16Z</time>
      </trkpt>
      <trkpt lat="45.93777" lon="3.04374">
        <ele>643</ele>
        <time>2011-10-22T06:37:28Z</time>
      </trkpt>
      <trkpt lat="45.93784" lon="3.04329">
        <ele>643</ele>
        <time>2011-10-22T06:37:41Z</time>
      </trkpt>
      <trkpt lat="45.93793" lon="3.04291">
        <ele>644</ele>
        <time>2011-10-22T06:37:52Z</time>
      </trkpt>
      <trkpt lat="45.93802" lon="3.04254">
        <ele>645</ele>
        <time>2011-10-22T06:38:03Z</time>
      </trkpt>
      <trkpt lat="45.93812" lon="3.04217">
        <ele>646</ele>
        <time>2011-10-22T06:38:14Z</time>
      </trkpt>
      <trkpt lat="45.9382" lon="3.04178">
        <ele>649</ele>
        <time>2011-10-22T06:38:25Z</time>
      </trkpt>
      <trkpt lat="45.93821" lon="3.04137">
        <ele>651</ele>
        <time>2011-10-22T06:38:37Z</time>
      </trkpt>
      <trkpt lat="45.93824" lon="3.04092">
        <ele>653</ele>
        <time>2011-10-22T06:38:49Z</time>
      </trkpt>
      <trkpt lat="45.93823" lon="3.04048">
        <ele>654</ele>
        <time>2011-10-22T06:39:01Z</time>
      </trkpt>
      <trkpt lat="45.93827" lon="3.04005">
        <ele>656</ele>
        <time>2011-10-22T06:39:14Z</time>
      </trkpt>
      <trkpt lat="45.93838" lon="3.03964">
        <ele>654</ele>
        <time>2011-10-22T06:39:26Z</time>
      </trkpt>
      <trkpt lat="45.93849" lon="3.03923">
        <ele>653</ele>
        <time>2011-10-22T06:39:38Z</time>
      </trkpt>
      <trkpt lat="45.93864" lon="3.03881">
        <ele>651</ele>
        <time>2011-10-22T06:39:51Z</time>
      </trkpt>
      <trkpt lat="45.93882" lon="3.03837">
        <ele>651</ele>
        <time>2011-10-22T06:40:06Z</time>
      </trkpt>
      <trkpt lat="45.93896" lon="3.038">
        <ele>650</ele>
        <time>2011-10-22T06:40:17Z</time>
      </trkpt>
      <trkpt lat="45.93914" lon="3.03763">
        <ele>650</ele>
        <time>2011-10-22T06:40:30Z</time>
      </trkpt>
      <trkpt lat="45.9392" lon="3.03725">
        <ele>650</ele>
        <time>2011-10-22T06:40:40Z</time>
      </trkpt>
      <trkpt lat="45.93922" lon="3.03681">
        <ele>650</ele>
        <time>2011-10-22T06:40:53Z</time>
      </trkpt>
      <trkpt lat="45.93931" lon="3.03641">
        <ele>651</ele>
        <time>2011-10-22T06:41:05Z</time>
      </trkpt>
      <trkpt lat="45.93951" lon="3.03621">
        <ele>652</ele>
        <time>2011-10-22T06:41:14Z</time>
      </trkpt>
      <trkpt lat="45.9398" lon="3.03623">
        <ele>652</ele>
        <time>2011-10-22T06:41:26Z</time>
      </trkpt>
      <trkpt lat="45.93993" lon="3.0359">
        <ele>653</ele>
        <time>2011-10-22T06:41:37Z</time>
      </trkpt>
      <trkpt lat="45.94016" lon="3.0356">
        <ele>652</ele>
        <time>2011-10-22T06:41:49Z</time>
      </trkpt>
      <trkpt lat="45.9404" lon="3.03527">
        <ele>651</ele>
        <time>2011-10-22T06:42:02Z</time>
      </trkpt>
      <trkpt lat="45.94051" lon="3.03485">
        <ele>651</ele>
        <time>2011-10-22T06:42:15Z</time>
      </trkpt>
      <trkpt lat="45.94054" lon="3.03443">
        <ele>651</ele>
        <time>2011-10-22T06:42:27Z</time>
      </trkpt>
      <trkpt lat="45.94062" lon="3.03405">
        <ele>650</ele>
        <time>2011-10-22T06:42:38Z</time>
      </trkpt>
      <trkpt lat="45.94076" lon="3.03353">
        <ele>651</ele>
        <time>2011-10-22T06:42:53Z</time>
      </trkpt>
      <trkpt lat="45.94084" lon="3.03311">
        <ele>648</ele>
        <time>2011-10-22T06:43:05Z</time>
      </trkpt>
      <trkpt lat="45.94073" lon="3.03273">
        <ele>650</ele>
        <time>2011-10-22T06:43:17Z</time>
      </trkpt>
      <trkpt lat="45.94049" lon="3.03237">
        <ele>650</ele>
        <time>2011-10-22T06:43:31Z</time>
      </trkpt>
      <trkpt lat="45.94048" lon="3.03197">
        <ele>650</ele>
        <time>2011-10-22T06:43:42Z</time>
      </trkpt>
      <trkpt lat="45.94056" lon="3.03159">
        <ele>649</ele>
        <time>2011-10-22T06:43:53Z</time>
      </trkpt>
      <trkpt lat="45.94074" lon="3.0313">
        <ele>648</ele>
        <time>2011-10-22T06:44:03Z</time>
      </trkpt>
      <trkpt lat="45.94098" lon="3.03112">
        <ele>647</ele>
        <time>2011-10-22T06:44:15Z</time>
      </trkpt>
      <trkpt lat="45.94129" lon="3.03092">
        <ele>647</ele>
        <time>2011-10-22T06:44:28Z</time>
      </trkpt>
      <trkpt lat="45.94155" lon="3.03074">
        <ele>648</ele>
        <time>2011-10-22T06:44:40Z</time>
      </trkpt>
      <trkpt lat="45.94173" lon="3.0304">
        <ele>648</ele>
        <time>2011-10-22T06:44:52Z</time>
      </trkpt>
      <trkpt lat="45.94188" lon="3.03003">
        <ele>649</ele>
        <time>2011-10-22T06:45:04Z</time>
      </trkpt>
      <trkpt lat="45.94199" lon="3.02961">
        <ele>651</ele>
        <time>2011-10-22T06:45:16Z</time>
      </trkpt>
      <trkpt lat="45.94205" lon="3.02917">
        <ele>651</ele>
        <time>2011-10-22T06:45:28Z</time>
      </trkpt>
      <trkpt lat="45.9421" lon="3.02875">
        <ele>653</ele>
        <time>2011-10-22T06:45:40Z</time>
      </trkpt>
      <trkpt lat="45.94212" lon="3.02832">
        <ele>655</ele>
        <time>2011-10-22T06:45:53Z</time>
      </trkpt>
      <trkpt lat="45.94197" lon="3.02793">
        <ele>656</ele>
        <time>2011-10-22T06:46:05Z</time>
      </trkpt>
      <trkpt lat="45.94181" lon="3.02755">
        <ele>656</ele>
        <time>2011-10-22T06:46:17Z</time>
      </trkpt>
      <trkpt lat="45.94179" lon="3.02709">
        <ele>659</ele>
        <time>2011-10-22T06:46:30Z</time>
      </trkpt>
      <trkpt lat="45.94174" lon="3.02671">
        <ele>660</ele>
        <time>2011-10-22T06:46:41Z</time>
      </trkpt>
      <trkpt lat="45.94146" lon="3.02654">
        <ele>661</ele>
        <time>2011-10-22T06:46:53Z</time>
      </trkpt>
      <trkpt lat="45.94129" lon="3.02619">
        <ele>661</ele>
        <time>2011-10-22T06:47:05Z</time>
      </trkpt>
      <trkpt lat="45.94117" lon="3.02574">
        <ele>664</ele>
        <time>2011-10-22T06:47:18Z</time>
      </trkpt>
      <trkpt lat="45.94106" lon="3.02537">
        <ele>664</ele>
        <time>2011-10-22T06:47:29Z</time>
      </trkpt>
      <trkpt lat="45.94091" lon="3.02503">
        <ele>666</ele>
        <time>2011-10-22T06:47:41Z</time>
      </trkpt>
      <trkpt lat="45.94092" lon="3.02462">
        <ele>669</ele>
        <time>2011-10-22T06:47:52Z</time>
      </trkpt>
      <trkpt lat="45.94097" lon="3.02422">
        <ele>672</ele>
        <time>2011-10-22T06:48:03Z</time>
      </trkpt>
      <trkpt lat="45.94104" lon="3.02379">
        <ele>677</ele>
        <time>2011-10-22T06:48:15Z</time>
      </trkpt>
      <trkpt lat="45.94111" lon="3.0234">
        <ele>678</ele>
        <time>2011-10-22T06:48:27Z</time>
      </trkpt>
      <trkpt lat="45.9412" lon="3.02303">
        <ele>683</ele>
        <time>2011-10-22T06:48:38Z</time>
      </trkpt>
      <trkpt lat="45.9414" lon="3.02276">
        <ele>684</ele>
        <time>2011-10-22T06:48:49Z</time>
      </trkpt>
      <trkpt lat="45.94151" lon="3.02234">
        <ele>687</ele>
        <time>2011-10-22T06:49:01Z</time>
      </trkpt>
      <trkpt lat="45.94135" lon="3.02198">
        <ele>687</ele>
        <time>2011-10-22T06:49:13Z</time>
      </trkpt>
      <trkpt lat="45.94124" lon="3.02161">
        <ele>687</ele>
        <time>2011-10-22T06:49:25Z</time>
      </trkpt>
      <trkpt lat="45.9411" lon="3.02123">
        <ele>687</ele>
        <time>2011-10-22T06:49:36Z</time>
      </trkpt>
      <trkpt lat="45.94112" lon="3.02083">
        <ele>686</ele>
        <time>2011-10-22T06:49:48Z</time>
      </trkpt>
      <trkpt lat="45.94113" lon="3.02041">
        <ele>686</ele>
        <time>2011-10-22T06:49:59Z</time>
      </trkpt>
      <trkpt lat="45.94123" lon="3.02002">
        <ele>686</ele>
        <time>2011-10-22T06:50:11Z</time>
      </trkpt>
      <trkpt lat="45.94131" lon="3.01963">
        <ele>687</ele>
        <time>2011-10-22T06:50:22Z</time>
      </trkpt>
      <trkpt lat="45.94156" lon="3.0193">
        <ele>688</ele>
        <time>2011-10-22T06:50:36Z</time>
      </trkpt>
      <trkpt lat="45.94177" lon="3.01912">
        <ele>690</ele>
        <time>2011-10-22T06:50:46Z</time>
      </trkpt>
      <trkpt lat="45.94204" lon="3.01922">
        <ele>691</ele>
        <time>2011-10-22T06:50:57Z</time>
      </trkpt>
      <trkpt lat="45.94231" lon="3.01933">
        <ele>692</ele>
        <time>2011-10-22T06:51:08Z</time>
      </trkpt>
      <trkpt lat="45.94262" lon="3.01941">
        <ele>694</ele>
        <time>2011-10-22T06:51:21Z</time>
      </trkpt>
      <trkpt lat="45.94288" lon="3.01958">
        <ele>694</ele>
        <time>2011-10-22T06:51:32Z</time>
      </trkpt>
      <trkpt lat="45.94314" lon="3.01986">
        <ele>693</ele>
        <time>2011-10-22T06:51:45Z</time>
      </trkpt>
      <trkpt lat="45.94334" lon="3.02025">
        <ele>692</ele>
        <time>2011-10-22T06:51:59Z</time>
      </trkpt>
      <trkpt lat="45.94354" lon="3.02057">
        <ele>691</ele>
        <time>2011-10-22T06:52:11Z</time>
      </trkpt>
      <trkpt lat="45.94381" lon="3.02068">
        <ele>691</ele>
        <time>2011-10-22T06:52:22Z</time>
      </trkpt>
      <trkpt lat="45.94408" lon="3.02081">
        <ele>690</ele>
        <time>2011-10-22T06:52:33Z</time>
      </trkpt>
      <trkpt lat="45.94434" lon="3.02099">
        <ele>689</ele>
        <time>2011-10-22T06:52:45Z</time>
      </trkpt>
      <trkpt lat="45.94437" lon="3.02139">
        <ele>688</ele>
        <time>2011-10-22T06:52:56Z</time>
      </trkpt>
      <trkpt lat="45.94434" lon="3.02184">
        <ele>686</ele>
        <time>2011-10-22T06:53:09Z</time>
      </trkpt>
      <trkpt lat="45.94448" lon="3.02211">
        <ele>686</ele>
        <time>2011-10-22T06:53:18Z</time>
      </trkpt>
      <trkpt lat="45.94476" lon="3.02203">
        <ele>687</ele>
        <time>2011-10-22T06:53:30Z</time>
      </trkpt>
      <trkpt lat="45.94501" lon="3.02188">
        <ele>689</ele>
        <time>2011-10-22T06:53:41Z</time>
      </trkpt>
      <trkpt lat="45.94533" lon="3.02179">
        <ele>690</ele>
        <time>2011-10-22T06:53:54Z</time>
      </trkpt>
      <trkpt lat="45.94556" lon="3.02157">
        <ele>691</ele>
        <time>2011-10-22T06:54:05Z</time>
      </trkpt>
      <trkpt lat="45.94576" lon="3.02115">
        <ele>692</ele>
        <time>2011-10-22T06:54:19Z</time>
      </trkpt>
      <trkpt lat="45.94596" lon="3.02079">
        <ele>693</ele>
        <time>2011-10-22T06:54:32Z</time>
      </trkpt>
      <trkpt lat="45.94618" lon="3.02041">
        <ele>693</ele>
        <time>2011-10-22T06:54:46Z</time>
      </trkpt>
      <trkpt lat="45.94633" lon="3.02008">
        <ele>694</ele>
        <time>2011-10-22T06:54:57Z</time>
      </trkpt>
      <trkpt lat="45.94651" lon="3.0197">
        <ele>696</ele>
        <time>2011-10-22T06:55:09Z</time>
      </trkpt>
      <trkpt lat="45.9467" lon="3.01931">
        <ele>696</ele>
        <time>2011-10-22T06:55:23Z</time>
      </trkpt>
      <trkpt lat="45.94683" lon="3.01895">
        <ele>698</ele>
        <time>2011-10-22T06:55:34Z</time>
      </trkpt>
      <trkpt lat="45.94689" lon="3.01854">
        <ele>698</ele>
        <time>2011-10-22T06:55:45Z</time>
      </trkpt>
      <trkpt lat="45.94695" lon="3.01809">
        <ele>700</ele>
        <time>2011-10-22T06:55:58Z</time>
      </trkpt>
      <trkpt lat="45.94701" lon="3.01761">
        <ele>700</ele>
        <time>2011-10-22T06:56:12Z</time>
      </trkpt>
      <trkpt lat="45.9471" lon="3.01721">
        <ele>701</ele>
        <time>2011-10-22T06:56:24Z</time>
      </trkpt>
      <trkpt lat="45.94721" lon="3.01679">
        <ele>701</ele>
        <time>2011-10-22T06:56:36Z</time>
      </trkpt>
      <trkpt lat="45.9473" lon="3.01639">
        <ele>702</ele>
        <time>2011-10-22T06:56:48Z</time>
      </trkpt>
      <trkpt lat="45.94734" lon="3.01598">
        <ele>703</ele>
        <time>2011-10-22T06:56:59Z</time>
      </trkpt>
      <trkpt lat="45.94736" lon="3.01554">
        <ele>703</ele>
        <time>2011-10-22T06:57:12Z</time>
      </trkpt>
      <trkpt lat="45.94739" lon="3.01511">
        <ele>704</ele>
        <time>2011-10-22T06:57:24Z</time>
      </trkpt>
      <trkpt lat="45.94747" lon="3.01469">
        <ele>704</ele>
        <time>2011-10-22T06:57:36Z</time>
      </trkpt>
      <trkpt lat="45.94754" lon="3.01427">
        <ele>704</ele>
        <time>2011-10-22T06:57:48Z</time>
      </trkpt>
      <trkpt lat="45.94768" lon="3.01393">
        <ele>706</ele>
        <time>2011-10-22T06:57:59Z</time>
      </trkpt>
      <trkpt lat="45.94785" lon="3.01363">
        <ele>707</ele>
        <time>2011-10-22T06:58:10Z</time>
      </trkpt>
      <trkpt lat="45.94804" lon="3.01335">
        <ele>707</ele>
        <time>2011-10-22T06:58:21Z</time>
      </trkpt>
      <trkpt lat="45.94825" lon="3.01305">
        <ele>708</ele>
        <time>2011-10-22T06:58:33Z</time>
      </trkpt>
      <trkpt lat="45.9484" lon="3.01272">
        <ele>709</ele>
        <time>2011-10-22T06:58:43Z</time>
      </trkpt>
      <trkpt lat="45.94852" lon="3.01237">
        <ele>711</ele>
        <time>2011-10-22T06:58:54Z</time>
      </trkpt>
      <trkpt lat="45.94866" lon="3.01203">
        <ele>712</ele>
        <time>2011-10-22T06:59:05Z</time>
      </trkpt>
      <trkpt lat="45.94878" lon="3.01164">
        <ele>715</ele>
        <time>2011-10-22T06:59:17Z</time>
      </trkpt>
      <trkpt lat="45.94887" lon="3.01124">
        <ele>716</ele>
        <time>2011-10-22T06:59:29Z</time>
      </trkpt>
      <trkpt lat="45.94891" lon="3.01083">
        <ele>717</ele>
        <time>2011-10-22T06:59:41Z</time>
      </trkpt>
      <trkpt lat="45.94899" lon="3.01041">
        <ele>717</ele>
        <time>2011-10-22T06:59:53Z</time>
      </trkpt>
      <trkpt lat="45.94914" lon="3.00999">
        <ele>718</ele>
        <time>2011-10-22T07:00:06Z</time>
      </trkpt>
      <trkpt lat="45.94931" lon="3.00964">
        <ele>719</ele>
        <time>2011-10-22T07:00:18Z</time>
      </trkpt>
      <trkpt lat="45.94954" lon="3.00931">
        <ele>719</ele>
        <time>2011-10-22T07:00:31Z</time>
      </trkpt>
      <trkpt lat="45.94978" lon="3.00908">
        <ele>718</ele>
        <time>2011-10-22T07:00:42Z</time>
      </trkpt>
      <trkpt lat="45.95005" lon="3.0088">
        <ele>718</ele>
        <time>2011-10-22T07:00:56Z</time>
      </trkpt>
      <trkpt lat="45.95033" lon="3.00854">
        <ele>718</ele>
        <time>2011-10-22T07:01:09Z</time>
      </trkpt>
      <trkpt lat="45.95061" lon="3.00833">
        <ele>718</ele>
        <time>2011-10-22T07:01:22Z</time>
      </trkpt>
      <trkpt lat="45.95087" lon="3.00811">
        <ele>718</ele>
        <time>2011-10-22T07:01:34Z</time>
      </trkpt>
      <trkpt lat="45.95112" lon="3.00789">
        <ele>718</ele>
        <time>2011-10-22T07:01:45Z</time>
      </trkpt>
      <trkpt lat="45.9514" lon="3.00761">
        <ele>718</ele>
        <time>2011-10-22T07:01:59Z</time>
      </trkpt>
      <trkpt lat="45.95168" lon="3.00746">
        <ele>718</ele>
        <time>2011-10-22T07:02:11Z</time>
      </trkpt>
      <trkpt lat="45.95195" lon="3.00731">
        <ele>716</ele>
        <time>2011-10-22T07:02:23Z</time>
      </trkpt>
      <trkpt lat="45.95224" lon="3.00711">
        <ele>715</ele>
        <time>2011-10-22T07:02:36Z</time>
      </trkpt>
      <trkpt lat="45.95252" lon="3.00688">
        <ele>712</ele>
        <time>2011-10-22T07:02:48Z</time>
      </trkpt>
      <trkpt lat="45.95281" lon="3.00669">
        <ele>712</ele>
        <time>2011-10-22T07:03:01Z</time>
      </trkpt>
      <trkpt lat="45.95311" lon="3.00656">
        <ele>712</ele>
        <time>2011-10-22T07:03:14Z</time>
      </trkpt>
      <trkpt lat="45.95344" lon="3.00648">
        <ele>711</ele>
        <time>2011-10-22T07:03:27Z</time>
      </trkpt>
      <trkpt lat="45.95377" lon="3.00637">
        <ele>711</ele>
        <time>2011-10-22T07:03:41Z</time>
      </trkpt>
      <trkpt lat="45.95407" lon="3.00627">
        <ele>711</ele>
        <time>2011-10-22T07:03:53Z</time>
      </trkpt>
      <trkpt lat="45.95438" lon="3.00609">
        <ele>711</ele>
        <time>2011-10-22T07:04:07Z</time>
      </trkpt>
      <trkpt lat="45.95468" lon="3.00591">
        <ele>711</ele>
        <time>2011-10-22T07:04:20Z</time>
      </trkpt>
      <trkpt lat="45.95498" lon="3.00581">
        <ele>711</ele>
        <time>2011-10-22T07:04:32Z</time>
      </trkpt>
      <trkpt lat="45.95529" lon="3.0057">
        <ele>710</ele>
        <time>2011-10-22T07:04:45Z</time>
      </trkpt>
      <trkpt lat="45.95556" lon="3.00564">
        <ele>710</ele>
        <time>2011-10-22T07:04:56Z</time>
      </trkpt>
      <trkpt lat="45.95585" lon="3.00555">
        <ele>710</ele>
        <time>2011-10-22T07:05:08Z</time>
      </trkpt>
      <trkpt lat="45.95612" lon="3.00555">
        <ele>711</ele>
        <time>2011-10-22T07:05:19Z</time>
      </trkpt>
      <trkpt lat="45.9564" lon="3.0057">
        <ele>711</ele>
        <time>2011-10-22T07:05:31Z</time>
      </trkpt>
      <trkpt lat="45.95674" lon="3.00575">
        <ele>712</ele>
        <time>2011-10-22T07:05:45Z</time>
      </trkpt>
      <trkpt lat="45.95698" lon="3.00556">
        <ele>712</ele>
        <time>2011-10-22T07:05:55Z</time>
      </trkpt>
      <trkpt lat="45.95725" lon="3.00532">
        <ele>713</ele>
        <time>2011-10-22T07:06:08Z</time>
      </trkpt>
      <trkpt lat="45.95756" lon="3.00521">
        <ele>713</ele>
        <time>2011-10-22T07:06:21Z</time>
      </trkpt>
      <trkpt lat="45.95785" lon="3.00515">
        <ele>713</ele>
        <time>2011-10-22T07:06:33Z</time>
      </trkpt>
      <trkpt lat="45.95816" lon="3.00503">
        <ele>713</ele>
        <time>2011-10-22T07:06:46Z</time>
      </trkpt>
      <trkpt lat="45.95846" lon="3.00489">
        <ele>714</ele>
        <time>2011-10-22T07:06:58Z</time>
      </trkpt>
      <trkpt lat="45.95872" lon="3.00475">
        <ele>714</ele>
        <time>2011-10-22T07:07:09Z</time>
      </trkpt>
      <trkpt lat="45.95898" lon="3.00459">
        <ele>714</ele>
        <time>2011-10-22T07:07:21Z</time>
      </trkpt>
      <trkpt lat="45.95935" lon="3.0045">
        <ele>715</ele>
        <time>2011-10-22T07:07:36Z</time>
      </trkpt>
      <trkpt lat="45.95963" lon="3.00434">
        <ele>715</ele>
        <time>2011-10-22T07:07:48Z</time>
      </trkpt>
      <trkpt lat="45.9599" lon="3.00426">
        <ele>717</ele>
        <time>2011-10-22T07:07:59Z</time>
      </trkpt>
      <trkpt lat="45.96022" lon="3.00426">
        <ele>717</ele>
        <time>2011-10-22T07:08:12Z</time>
      </trkpt>
      <trkpt lat="45.96032" lon="3.00406">
        <ele>720</ele>
        <time>2011-10-22T07:08:19Z</time>
      </trkpt>
      <trkpt lat="45.96022" lon="3.00368">
        <ele>721</ele>
        <time>2011-10-22T07:08:30Z</time>
      </trkpt>
      <trkpt lat="45.96019" lon="3.00329">
        <ele>724</ele>
        <time>2011-10-22T07:08:41Z</time>
      </trkpt>
      <trkpt lat="45.96" lon="3.00302">
        <ele>725</ele>
        <time>2011-10-22T07:08:52Z</time>
      </trkpt>
      <trkpt lat="45.95976" lon="3.0028">
        <ele>725</ele>
        <time>2011-10-22T07:09:03Z</time>
      </trkpt>
      <trkpt lat="45.95961" lon="3.00244">
        <ele>728</ele>
        <time>2011-10-22T07:09:15Z</time>
      </trkpt>
      <trkpt lat="45.95958" lon="3.00199">
        <ele>729</ele>
        <time>2011-10-22T07:09:27Z</time>
      </trkpt>
      <trkpt lat="45.95956" lon="3.00152">
        <ele>730</ele>
        <time>2011-10-22T07:09:40Z</time>
      </trkpt>
      <trkpt lat="45.95957" lon="3.00107">
        <ele>730</ele>
        <time>2011-10-22T07:09:53Z</time>
      </trkpt>
      <trkpt lat="45.95948" lon="3.00065">
        <ele>729</ele>
        <time>2011-10-22T07:10:05Z</time>
      </trkpt>
      <trkpt lat="45.95936" lon="3.00027">
        <ele>728</ele>
        <time>2011-10-22T07:10:17Z</time>
      </trkpt>
      <trkpt lat="45.95931" lon="2.99982">
        <ele>726</ele>
        <time>2011-10-22T07:10:29Z</time>
      </trkpt>
      <trkpt lat="45.95927" lon="2.99944">
        <ele>725</ele>
        <time>2011-10-22T07:10:40Z</time>
      </trkpt>
      <trkpt lat="45.95921" lon="2.99899">
        <ele>724</ele>
        <time>2011-10-22T07:10:53Z</time>
      </trkpt>
      <trkpt lat="45.9592" lon="2.99859">
        <ele>724</ele>
        <time>2011-10-22T07:11:04Z</time>
      </trkpt>
      <trkpt lat="45.95916" lon="2.99821">
        <ele>721</ele>
        <time>2011-10-22T07:11:15Z</time>
      </trkpt>
      <trkpt lat="45.9592" lon="2.99784">
        <ele>723</ele>
        <time>2011-10-22T07:11:25Z</time>
      </trkpt>
      <trkpt lat="45.95922" lon="2.99746">
        <ele>721</ele>
        <time>2011-10-22T07:11:36Z</time>
      </trkpt>
      <trkpt lat="45.95921" lon="2.99702">
        <ele>722</ele>
        <time>2011-10-22T07:11:48Z</time>
      </trkpt>
      <trkpt lat="45.95926" lon="2.99663">
        <ele>722</ele>
        <time>2011-10-22T07:11:59Z</time>
      </trkpt>
      <trkpt lat="45.95931" lon="2.99618">
        <ele>725</ele>
        <time>2011-10-22T07:12:12Z</time>
      </trkpt>
      <trkpt lat="45.95923" lon="2.99574">
        <ele>728</ele>
        <time>2011-10-22T07:12:24Z</time>
      </trkpt>
      <trkpt lat="45.95908" lon="2.99541">
        <ele>730</ele>
        <time>2011-10-22T07:12:35Z</time>
      </trkpt>
      <trkpt lat="45.95892" lon="2.99509">
        <ele>731</ele>
        <time>2011-10-22T07:12:46Z</time>
      </trkpt>
      <trkpt lat="45.95883" lon="2.99472">
        <ele>734</ele>
        <time>2011-10-22T07:12:57Z</time>
      </trkpt>
      <trkpt lat="45.95865" lon="2.99435">
        <ele>735</ele>
        <time>2011-10-22T07:13:09Z</time>
      </trkpt>
      <trkpt lat="45.9585" lon="2.99402">
        <ele>737</ele>
        <time>2011-10-22T07:13:21Z</time>
      </trkpt>
      <trkpt lat="45.95836" lon="2.99368">
        <ele>738</ele>
        <time>2011-10-22T07:13:31Z</time>
      </trkpt>
      <trkpt lat="45.95823" lon="2.99331">
        <ele>739</ele>
        <time>2011-10-22T07:13:43Z</time>
      </trkpt>
      <trkpt lat="45.95815" lon="2.9929">
        <ele>740</ele>
        <time>2011-10-22T07:13:55Z</time>
      </trkpt>
      <trkpt lat="45.95818" lon="2.99246">
        <ele>741</ele>
        <time>2011-10-22T07:14:07Z</time>
      </trkpt>
      <trkpt lat="45.95824" lon="2.99204">
        <ele>742</ele>
        <time>2011-10-22T07:14:19Z</time>
      </trkpt>
      <trkpt lat="45.95833" lon="2.99166">
        <ele>744</ele>
        <time>2011-10-22T07:14:30Z</time>
      </trkpt>
      <trkpt lat="45.95833" lon="2.99124">
        <ele>745</ele>
        <time>2011-10-22T07:14:42Z</time>
      </trkpt>
      <trkpt lat="45.95852" lon="2.99107">
        <ele>745</ele>
        <time>2011-10-22T07:14:51Z</time>
      </trkpt>
      <trkpt lat="45.95878" lon="2.99128">
        <ele>745</ele>
        <time>2011-10-22T07:15:03Z</time>
      </trkpt>
      <trkpt lat="45.95906" lon="2.99143">
        <ele>745</ele>
        <time>2011-10-22T07:15:15Z</time>
      </trkpt>
      <trkpt lat="45.95936" lon="2.99156">
        <ele>745</ele>
        <time>2011-10-22T07:15:28Z</time>
      </trkpt>
      <trkpt lat="45.95968" lon="2.99167">
        <ele>744</ele>
        <time>2011-10-22T07:15:41Z</time>
      </trkpt>
      <trkpt lat="45.95998" lon="2.99176">
        <ele>743</ele>
        <time>2011-10-22T07:15:53Z</time>
      </trkpt>
      <trkpt lat="45.96025" lon="2.99177">
        <ele>742</ele>
        <time>2011-10-22T07:16:04Z</time>
      </trkpt>
      <trkpt lat="45.96052" lon="2.99184">
        <ele>742</ele>
        <time>2011-10-22T07:16:15Z</time>
      </trkpt>
      <trkpt lat="45.96081" lon="2.99191">
        <ele>742</ele>
        <time>2011-10-22T07:16:27Z</time>
      </trkpt>
      <trkpt lat="45.9611" lon="2.992">
        <ele>740</ele>
        <time>2011-10-22T07:16:39Z</time>
      </trkpt>
      <trkpt lat="45.96134" lon="2.99218">
        <ele>740</ele>
        <time>2011-10-22T07:16:49Z</time>
      </trkpt>
      <trkpt lat="45.9616" lon="2.99232">
        <ele>739</ele>
        <time>2011-10-22T07:17:01Z</time>
      </trkpt>
      <trkpt lat="45.96187" lon="2.99246">
        <ele>738</ele>
        <time>2011-10-22T07:17:12Z</time>
      </trkpt>
      <trkpt lat="45.96215" lon="2.99261">
        <ele>738</ele>
        <time>2011-10-22T07:17:24Z</time>
      </trkpt>
      <trkpt lat="45.9624" lon="2.99279">
        <ele>738</ele>
        <time>2011-10-22T07:17:36Z</time>
      </trkpt>
      <trkpt lat="45.96266" lon="2.9929">
        <ele>737</ele>
        <time>2011-10-22T07:17:46Z</time>
      </trkpt>
      <trkpt lat="45.96297" lon="2.99298">
        <ele>736</ele>
        <time>2011-10-22T07:17:59Z</time>
      </trkpt>
      <trkpt lat="45.96325" lon="2.99308">
        <ele>736</ele>
        <time>2011-10-22T07:18:10Z</time>
      </trkpt>
      <trkpt lat="45.9635" lon="2.99322">
        <ele>735</ele>
        <time>2011-10-22T07:18:21Z</time>
      </trkpt>
      <trkpt lat="45.96377" lon="2.99336">
        <ele>735</ele>
        <time>2011-10-22T07:18:33Z</time>
      </trkpt>
      <trkpt lat="45.96409" lon="2.99348">
        <ele>735</ele>
        <time>2011-10-22T07:18:46Z</time>
      </trkpt>
      <trkpt lat="45.96439" lon="2.99354">
        <ele>734</ele>
        <time>2011-10-22T07:18:58Z</time>
      </trkpt>
      <trkpt lat="45.96469" lon="2.99361">
        <ele>734</ele>
        <time>2011-10-22T07:19:11Z</time>
      </trkpt>
      <trkpt lat="45.965" lon="2.99371">
        <ele>734</ele>
        <time>2011-10-22T07:19:23Z</time>
      </trkpt>
      <trkpt lat="45.9653" lon="2.99379">
        <ele>732</ele>
        <time>2011-10-22T07:19:35Z</time>
      </trkpt>
      <trkpt lat="45.96562" lon="2.99388">
        <ele>733</ele>
        <time>2011-10-22T07:19:48Z</time>
      </trkpt>
      <trkpt lat="45.96594" lon="2.99398">
        <ele>732</ele>
        <time>2011-10-22T07:20:02Z</time>
      </trkpt>
      <trkpt lat="45.9662" lon="2.99408">
        <ele>731</ele>
        <time>2011-10-22T07:20:12Z</time>
      </trkpt>
      <trkpt lat="45.96647" lon="2.99412">
        <ele>731</ele>
        <time>2011-10-22T07:20:23Z</time>
      </trkpt>
      <trkpt lat="45.96678" lon="2.99422">
        <ele>731</ele>
        <time>2011-10-22T07:20:36Z</time>
      </trkpt>
      <trkpt lat="45.96704" lon="2.99438">
        <ele>730</ele>
        <time>2011-10-22T07:20:47Z</time>
      </trkpt>
      <trkpt lat="45.96734" lon="2.99454">
        <ele>729</ele>
        <time>2011-10-22T07:21:00Z</time>
      </trkpt>
      <trkpt lat="45.96765" lon="2.99466">
        <ele>725</ele>
        <time>2011-10-22T07:21:13Z</time>
      </trkpt>
      <trkpt lat="45.96795" lon="2.99474">
        <ele>725</ele>
        <time>2011-10-22T07:21:26Z</time>
      </trkpt>
      <trkpt lat="45.96828" lon="2.9948">
        <ele>724</ele>
        <time>2011-10-22T07:21:39Z</time>
      </trkpt>
      <trkpt lat="45.96859" lon="2.99486">
        <ele>721</ele>
        <time>2011-10-22T07:21:51Z</time>
      </trkpt>
      <trkpt lat="45.96887" lon="2.99498">
        <ele>721</ele>
        <time>2011-10-22T07:22:03Z</time>
      </trkpt>
      <trkpt lat="45.96913" lon="2.99507">
        <ele>723</ele>
        <time>2011-10-22T07:22:14Z</time>
      </trkpt>
      <trkpt lat="45.9694" lon="2.99516">
        <ele>723</ele>
        <time>2011-10-22T07:22:25Z</time>
      </trkpt>
      <trkpt lat="45.96971" lon="2.9952">
        <ele>722</ele>
        <time>2011-10-22T07:22:38Z</time>
      </trkpt>
      <trkpt lat="45.96999" lon="2.99514">
        <ele>721</ele>
        <time>2011-10-22T07:22:49Z</time>
      </trkpt>
      <trkpt lat="45.97032" lon="2.99501">
        <ele>720</ele>
        <time>2011-10-22T07:23:03Z</time>
      </trkpt>
      <trkpt lat="45.97064" lon="2.99494">
        <ele>715</ele>
        <time>2011-10-22T07:23:16Z</time>
      </trkpt>
      <trkpt lat="45.97095" lon="2.9949">
        <ele>715</ele>
        <time>2011-10-22T07:23:28Z</time>
      </trkpt>
      <trkpt lat="45.97125" lon="2.99488">
        <ele>714</ele>
        <time>2011-10-22T07:23:40Z</time>
      </trkpt>
      <trkpt lat="45.97155" lon="2.99485">
        <ele>715</ele>
        <time>2011-10-22T07:23:52Z</time>
      </trkpt>
      <trkpt lat="45.97186" lon="2.99483">
        <ele>714</ele>
        <time>2011-10-22T07:24:05Z</time>
      </trkpt>
      <trkpt lat="45.97216" lon="2.99489">
        <ele>714</ele>
        <time>2011-10-22T07:24:17Z</time>
      </trkpt>
      <trkpt lat="45.97249" lon="2.99486">
        <ele>714</ele>
        <time>2011-10-22T07:24:30Z</time>
      </trkpt>
      <trkpt lat="45.97277" lon="2.9948">
        <ele>714</ele>
        <time>2011-10-22T07:24:41Z</time>
      </trkpt>
      <trkpt lat="45.97306" lon="2.99482">
        <ele>715</ele>
        <time>2011-10-22T07:24:53Z</time>
      </trkpt>
      <trkpt lat="45.97338" lon="2.99485">
        <ele>716</ele>
        <time>2011-10-22T07:25:06Z</time>
      </trkpt>
      <trkpt lat="45.9737" lon="2.9949">
        <ele>717</ele>
        <time>2011-10-22T07:25:19Z</time>
      </trkpt>
      <trkpt lat="45.97399" lon="2.99501">
        <ele>718</ele>
        <time>2011-10-22T07:25:31Z</time>
      </trkpt>
      <trkpt lat="45.97427" lon="2.99512">
        <ele>719</ele>
        <time>2011-10-22T07:25:43Z</time>
      </trkpt>
      <trkpt lat="45.97457" lon="2.99524">
        <ele>719</ele>
        <time>2011-10-22T07:25:55Z</time>
      </trkpt>
      <trkpt lat="45.97485" lon="2.99538">
        <ele>720</ele>
        <time>2011-10-22T07:26:07Z</time>
      </trkpt>
      <trkpt lat="45.97513" lon="2.99555">
        <ele>721</ele>
        <time>2011-10-22T07:26:19Z</time>
      </trkpt>
      <trkpt lat="45.9754" lon="2.99571">
        <ele>721</ele>
        <time>2011-10-22T07:26:31Z</time>
      </trkpt>
      <trkpt lat="45.97568" lon="2.99587">
        <ele>725</ele>
        <time>2011-10-22T07:26:43Z</time>
      </trkpt>
      <trkpt lat="45.97596" lon="2.996">
        <ele>725</ele>
        <time>2011-10-22T07:26:55Z</time>
      </trkpt>
      <trkpt lat="45.97624" lon="2.99615">
        <ele>726</ele>
        <time>2011-10-22T07:27:07Z</time>
      </trkpt>
      <trkpt lat="45.97652" lon="2.99636">
        <ele>726</ele>
        <time>2011-10-22T07:27:19Z</time>
      </trkpt>
      <trkpt lat="45.97679" lon="2.99664">
        <ele>727</ele>
        <time>2011-10-22T07:27:33Z</time>
      </trkpt>
      <trkpt lat="45.97705" lon="2.997">
        <ele>729</ele>
        <time>2011-10-22T07:27:48Z</time>
      </trkpt>
      <trkpt lat="45.97728" lon="2.99732">
        <ele>729</ele>
        <time>2011-10-22T07:28:00Z</time>
      </trkpt>
      <trkpt lat="45.97749" lon="2.99758">
        <ele>729</ele>
        <time>2011-10-22T07:28:11Z</time>
      </trkpt>
      <trkpt lat="45.97774" lon="2.99776">
        <ele>726</ele>
        <time>2011-10-22T07:28:22Z</time>
      </trkpt>
      <trkpt lat="45.978" lon="2.998">
        <ele>725</ele>
        <time>2011-10-22T07:28:35Z</time>
      </trkpt>
      <trkpt lat="45.97825" lon="2.99816">
        <ele>724</ele>
        <time>2011-10-22T07:28:46Z</time>
      </trkpt>
      <trkpt lat="45.97855" lon="2.9982">
        <ele>721</ele>
        <time>2011-10-22T07:28:58Z</time>
      </trkpt>
      <trkpt lat="45.97882" lon="2.99817">
        <ele>720</ele>
        <time>2011-10-22T07:29:09Z</time>
      </trkpt>
      <trkpt lat="45.97915" lon="2.99813">
        <ele>718</ele>
        <time>2011-10-22T07:29:22Z</time>
      </trkpt>
      <trkpt lat="45.97934" lon="2.99785">
        <ele>715</ele>
        <time>2011-10-22T07:29:33Z</time>
      </trkpt>
      <trkpt lat="45.97926" lon="2.99748">
        <ele>713</ele>
        <time>2011-10-22T07:29:44Z</time>
      </trkpt>
      <trkpt lat="45.979" lon="2.99724">
        <ele>717</ele>
        <time>2011-10-22T07:29:56Z</time>
      </trkpt>
      <trkpt lat="45.97882" lon="2.99693">
        <ele>716</ele>
        <time>2011-10-22T07:30:08Z</time>
      </trkpt>
      <trkpt lat="45.97855" lon="2.99663">
        <ele>708</ele>
        <time>2011-10-22T07:30:21Z</time>
      </trkpt>
      <trkpt lat="45.9783" lon="2.99643">
        <ele>715</ele>
        <time>2011-10-22T07:30:32Z</time>
      </trkpt>
      <trkpt lat="45.97806" lon="2.99625">
        <ele>713</ele>
        <time>2011-10-22T07:30:44Z</time>
      </trkpt>
      <trkpt lat="45.97786" lon="2.99592">
        <ele>712</ele>
        <time>2011-10-22T07:30:55Z</time>
      </trkpt>
      <trkpt lat="45.97763" lon="2.9956">
        <ele>703</ele>
        <time>2011-10-22T07:31:08Z</time>
      </trkpt>
      <trkpt lat="45.97738" lon="2.9952">
        <ele>707</ele>
        <time>2011-10-22T07:31:23Z</time>
      </trkpt>
      <trkpt lat="45.97723" lon="2.99485">
        <ele>700</ele>
        <time>2011-10-22T07:31:35Z</time>
      </trkpt>
      <trkpt lat="45.97711" lon="2.99444">
        <ele>699</ele>
        <time>2011-10-22T07:31:47Z</time>
      </trkpt>
      <trkpt lat="45.97692" lon="2.99414">
        <ele>694</ele>
        <time>2011-10-22T07:31:58Z</time>
      </trkpt>
      <trkpt lat="45.97673" lon="2.99386">
        <ele>694</ele>
        <time>2011-10-22T07:32:09Z</time>
      </trkpt>
      <trkpt lat="45.9765" lon="2.99365">
        <ele>699</ele>
        <time>2011-10-22T07:32:20Z</time>
      </trkpt>
      <trkpt lat="45.97621" lon="2.99342">
        <ele>698</ele>
        <time>2011-10-22T07:32:33Z</time>
      </trkpt>
      <trkpt lat="45.97596" lon="2.99322">
        <ele>695</ele>
        <time>2011-10-22T07:32:45Z</time>
      </trkpt>
      <trkpt lat="45.97569" lon="2.99291">
        <ele>696</ele>
        <time>2011-10-22T07:32:59Z</time>
      </trkpt>
      <trkpt lat="45.97545" lon="2.99262">
        <ele>695</ele>
        <time>2011-10-22T07:33:11Z</time>
      </trkpt>
      <trkpt lat="45.97518" lon="2.99234">
        <ele>692</ele>
        <time>2011-10-22T07:33:24Z</time>
      </trkpt>
      <trkpt lat="45.97494" lon="2.99206">
        <ele>696</ele>
        <time>2011-10-22T07:33:37Z</time>
      </trkpt>
      <trkpt lat="45.97476" lon="2.99174">
        <ele>694</ele>
        <time>2011-10-22T07:33:48Z</time>
      </trkpt>
      <trkpt lat="45.97457" lon="2.99135">
        <ele>692</ele>
        <time>2011-10-22T07:34:02Z</time>
      </trkpt>
      <trkpt lat="45.97432" lon="2.99107">
        <ele>692</ele>
        <time>2011-10-22T07:34:14Z</time>
      </trkpt>
      <trkpt lat="45.97411" lon="2.99079">
        <ele>694</ele>
        <time>2011-10-22T07:34:26Z</time>
      </trkpt>
      <trkpt lat="45.97391" lon="2.99049">
        <ele>695</ele>
        <time>2011-10-22T07:34:37Z</time>
      </trkpt>
      <trkpt lat="45.97371" lon="2.9902">
        <ele>695</ele>
        <time>2011-10-22T07:34:49Z</time>
      </trkpt>
      <trkpt lat="45.97352" lon="2.98988">
        <ele>694</ele>
        <time>2011-10-22T07:35:00Z</time>
      </trkpt>
      <trkpt lat="45.97346" lon="2.98954">
        <ele>692</ele>
        <time>2011-10-22T07:35:10Z</time>
      </trkpt>
      <trkpt lat="45.97375" lon="2.98929">
        <ele>690</ele>
        <time>2011-10-22T07:35:24Z</time>
      </trkpt>
      <trkpt lat="45.97407" lon="2.98921">
        <ele>686</ele>
        <time>2011-10-22T07:35:37Z</time>
      </trkpt>
      <trkpt lat="45.97437" lon="2.98924">
        <ele>684</ele>
        <time>2011-10-22T07:35:49Z</time>
      </trkpt>
      <trkpt lat="45.97471" lon="2.98923">
        <ele>682</ele>
        <time>2011-10-22T07:36:03Z</time>
      </trkpt>
      <trkpt lat="45.97499" lon="2.98923">
        <ele>679</ele>
        <time>2011-10-22T07:36:14Z</time>
      </trkpt>
      <trkpt lat="45.97525" lon="2.98937">
        <ele>677</ele>
        <time>2011-10-22T07:36:25Z</time>
      </trkpt>
      <trkpt lat="45.97553" lon="2.98943">
        <ele>675</ele>
        <time>2011-10-22T07:36:36Z</time>
      </trkpt>
      <trkpt lat="45.97583" lon="2.98948">
        <ele>674</ele>
        <time>2011-10-22T07:36:48Z</time>
      </trkpt>
      <trkpt lat="45.97613" lon="2.98954">
        <ele>669</ele>
        <time>2011-10-22T07:37:00Z</time>
      </trkpt>
      <trkpt lat="45.9764" lon="2.9897">
        <ele>668</ele>
        <time>2011-10-22T07:37:12Z</time>
      </trkpt>
      <trkpt lat="45.97665" lon="2.98993">
        <ele>668</ele>
        <time>2011-10-22T07:37:24Z</time>
      </trkpt>
      <trkpt lat="45.97701" lon="2.98998">
        <ele>659</ele>
        <time>2011-10-22T07:37:39Z</time>
      </trkpt>
      <trkpt lat="45.97717" lon="2.98963">
        <ele>656</ele>
        <time>2011-10-22T07:37:51Z</time>
      </trkpt>
      <trkpt lat="45.97739" lon="2.98944">
        <ele>654</ele>
        <time>2011-10-22T07:38:01Z</time>
      </trkpt>
      <trkpt lat="45.97767" lon="2.98945">
        <ele>643</ele>
        <time>2011-10-22T07:38:12Z</time>
      </trkpt>
      <trkpt lat="45.97791" lon="2.98936">
        <ele>641</ele>
        <time>2011-10-22T07:38:22Z</time>
      </trkpt>
      <trkpt lat="45.978" lon="2.98896">
        <ele>643</ele>
        <time>2011-10-22T07:38:34Z</time>
      </trkpt>
      <trkpt lat="45.97816" lon="2.98865">
        <ele>644</ele>
        <time>2011-10-22T07:38:45Z</time>
      </trkpt>
      <trkpt lat="45.97838" lon="2.98838">
        <ele>643</ele>
        <time>2011-10-22T07:38:56Z</time>
      </trkpt>
      <trkpt lat="45.97854" lon="2.98803">
        <ele>645</ele>
        <time>2011-10-22T07:39:08Z</time>
      </trkpt>
      <trkpt lat="45.97871" lon="2.98771">
        <ele>646</ele>
        <time>2011-10-22T07:39:19Z</time>
      </trkpt>
      <trkpt lat="45.97893" lon="2.98743">
        <ele>650</ele>
        <time>2011-10-22T07:39:31Z</time>
      </trkpt>
      <trkpt lat="45.97917" lon="2.98726">
        <ele>646</ele>
        <time>2011-10-22T07:39:41Z</time>
      </trkpt>
      <trkpt lat="45.97947" lon="2.98714">
        <ele>645</ele>
        <time>2011-10-22T07:39:54Z</time>
      </trkpt>
      <trkpt lat="45.97972" lon="2.98689">
        <ele>644</ele>
        <time>2011-10-22T07:40:06Z</time>
      </trkpt>
      <trkpt lat="45.98" lon="2.9867">
        <ele>644</ele>
        <time>2011-10-22T07:40:18Z</time>
      </trkpt>
      <trkpt lat="45.98027" lon="2.98663">
        <ele>641</ele>
        <time>2011-10-22T07:40:30Z</time>
      </trkpt>
      <trkpt lat="45.98057" lon="2.98669">
        <ele>636</ele>
        <time>2011-10-22T07:40:42Z</time>
      </trkpt>
      <trkpt lat="45.98084" lon="2.98678">
        <ele>634</ele>
        <time>2011-10-22T07:40:53Z</time>
      </trkpt>
      <trkpt lat="45.98106" lon="2.98677">
        <ele>634</ele>
        <time>2011-10-22T07:41:02Z</time>
      </trkpt>
      <trkpt lat="45.98137" lon="2.98677">
        <ele>633</ele>
        <time>2011-10-22T07:41:14Z</time>
      </trkpt>
      <trkpt lat="45.98166" lon="2.98678">
        <ele>632</ele>
        <time>2011-10-22T07:41:26Z</time>
      </trkpt>
      <trkpt lat="45.98194" lon="2.98668">
        <ele>634</ele>
        <time>2011-10-22T07:41:37Z</time>
      </trkpt>
      <trkpt lat="45.98216" lon="2.98664">
        <ele>636</ele>
        <time>2011-10-22T07:41:46Z</time>
      </trkpt>
      <trkpt lat="45.98248" lon="2.98667">
        <ele>639</ele>
        <time>2011-10-22T07:41:59Z</time>
      </trkpt>
      <trkpt lat="45.98273" lon="2.98685">
        <ele>640</ele>
        <time>2011-10-22T07:42:10Z</time>
      </trkpt>
      <trkpt lat="45.983" lon="2.98703">
        <ele>641</ele>
        <time>2011-10-22T07:42:22Z</time>
      </trkpt>
      <trkpt lat="45.98325" lon="2.98732">
        <ele>643</ele>
        <time>2011-10-22T07:42:35Z</time>
      </trkpt>
      <trkpt lat="45.98348" lon="2.98755">
        <ele>647</ele>
        <time>2011-10-22T07:42:46Z</time>
      </trkpt>
      <trkpt lat="45.98372" lon="2.98785">
        <ele>649</ele>
        <time>2011-10-22T07:42:59Z</time>
      </trkpt>
      <trkpt lat="45.98394" lon="2.98814">
        <ele>651</ele>
        <time>2011-10-22T07:43:11Z</time>
      </trkpt>
      <trkpt lat="45.9842" lon="2.98839">
        <ele>656</ele>
        <time>2011-10-22T07:43:24Z</time>
      </trkpt>
      <trkpt lat="45.98439" lon="2.98874">
        <ele>657</ele>
        <time>2011-10-22T07:43:36Z</time>
      </trkpt>
      <trkpt lat="45.98455" lon="2.98912">
        <ele>658</ele>
        <time>2011-10-22T07:43:48Z</time>
      </trkpt>
      <trkpt lat="45.98475" lon="2.98944">
        <ele>661</ele>
        <time>2011-10-22T07:44:01Z</time>
      </trkpt>
      <trkpt lat="45.98472" lon="2.98981">
        <ele>663</ele>
        <time>2011-10-22T07:44:11Z</time>
      </trkpt>
      <trkpt lat="45.98457" lon="2.99018">
        <ele>666</ele>
        <time>2011-10-22T07:44:23Z</time>
      </trkpt>
      <trkpt lat="45.98468" lon="2.99059">
        <ele>669</ele>
        <time>2011-10-22T07:44:35Z</time>
      </trkpt>
      <trkpt lat="45.98477" lon="2.991">
        <ele>677</ele>
        <time>2011-10-22T07:44:47Z</time>
      </trkpt>
      <trkpt lat="45.98474" lon="2.99144">
        <ele>680</ele>
        <time>2011-10-22T07:44:59Z</time>
      </trkpt>
      <trkpt lat="45.98469" lon="2.99184">
        <ele>686</ele>
        <time>2011-10-22T07:45:11Z</time>
      </trkpt>
      <trkpt lat="45.98473" lon="2.99227">
        <ele>688</ele>
        <time>2011-10-22T07:45:23Z</time>
      </trkpt>
      <trkpt lat="45.98473" lon="2.99268">
        <ele>692</ele>
        <time>2011-10-22T07:45:34Z</time>
      </trkpt>
      <trkpt lat="45.98466" lon="2.99312">
        <ele>691</ele>
        <time>2011-10-22T07:45:47Z</time>
      </trkpt>
      <trkpt lat="45.98472" lon="2.99347">
        <ele>694</ele>
        <time>2011-10-22T07:45:57Z</time>
      </trkpt>
      <trkpt lat="45.98472" lon="2.9931">
        <ele>692</ele>
        <time>2011-10-22T07:46:07Z</time>
      </trkpt>
      <trkpt lat="45.98474" lon="2.99346">
        <ele>694</ele>
        <time>2011-10-22T07:46:17Z</time>
      </trkpt>
      <trkpt lat="45.98462" lon="2.99385">
        <ele>694</ele>
        <time>2011-10-22T07:46:29Z</time>
      </trkpt>
      <trkpt lat="45.98449" lon="2.99424">
        <ele>697</ele>
        <time>2011-10-22T07:46:41Z</time>
      </trkpt>
      <trkpt lat="45.98434" lon="2.99456">
        <ele>697</ele>
        <time>2011-10-22T07:46:52Z</time>
      </trkpt>
      <trkpt lat="45.98419" lon="2.99495">
        <ele>701</ele>
        <time>2011-10-22T07:47:04Z</time>
      </trkpt>
      <trkpt lat="45.98409" lon="2.99538">
        <ele>700</ele>
        <time>2011-10-22T07:47:17Z</time>
      </trkpt>
      <trkpt lat="45.98397" lon="2.9957">
        <ele>701</ele>
        <time>2011-10-22T07:47:27Z</time>
      </trkpt>
      <trkpt lat="45.98401" lon="2.99615">
        <ele>705</ele>
        <time>2011-10-22T07:47:40Z</time>
      </trkpt>
      <trkpt lat="45.98391" lon="2.99652">
        <ele>705</ele>
        <time>2011-10-22T07:47:51Z</time>
      </trkpt>
      <trkpt lat="45.9838" lon="2.99695">
        <ele>707</ele>
        <time>2011-10-22T07:48:04Z</time>
      </trkpt>
      <trkpt lat="45.98369" lon="2.99735">
        <ele>708</ele>
        <time>2011-10-22T07:48:15Z</time>
      </trkpt>
      <trkpt lat="45.98356" lon="2.99773">
        <ele>708</ele>
        <time>2011-10-22T07:48:27Z</time>
      </trkpt>
      <trkpt lat="45.98338" lon="2.99805">
        <ele>707</ele>
        <time>2011-10-22T07:48:39Z</time>
      </trkpt>
      <trkpt lat="45.98315" lon="2.99837">
        <ele>709</ele>
        <time>2011-10-22T07:48:51Z</time>
      </trkpt>
      <trkpt lat="45.9829" lon="2.99864">
        <ele>709</ele>
        <time>2011-10-22T07:49:04Z</time>
      </trkpt>
      <trkpt lat="45.98264" lon="2.99897">
        <ele>708</ele>
        <time>2011-10-22T07:49:18Z</time>
      </trkpt>
      <trkpt lat="45.98241" lon="2.99928">
        <ele>705</ele>
        <time>2011-10-22T07:49:31Z</time>
      </trkpt>
      <trkpt lat="45.98223" lon="2.9996">
        <ele>704</ele>
        <time>2011-10-22T07:49:42Z</time>
      </trkpt>
      <trkpt lat="45.98205" lon="2.99994">
        <ele>703</ele>
        <time>2011-10-22T07:49:54Z</time>
      </trkpt>
      <trkpt lat="45.98184" lon="3.00028">
        <ele>699</ele>
        <time>2011-10-22T07:50:07Z</time>
      </trkpt>
      <trkpt lat="45.98169" lon="3.00061">
        <ele>697</ele>
        <time>2011-10-22T07:50:18Z</time>
      </trkpt>
      <trkpt lat="45.98152" lon="3.00087">
        <ele>692</ele>
        <time>2011-10-22T07:50:28Z</time>
      </trkpt>
      <trkpt lat="45.98125" lon="3.00091">
        <ele>689</ele>
        <time>2011-10-22T07:50:38Z</time>
      </trkpt>
      <trkpt lat="45.981" lon="3.00113">
        <ele>688</ele>
        <time>2011-10-22T07:50:50Z</time>
      </trkpt>
      <trkpt lat="45.9808" lon="3.00145">
        <ele>683</ele>
        <time>2011-10-22T07:51:02Z</time>
      </trkpt>
      <trkpt lat="45.98055" lon="3.00178">
        <ele>677</ele>
        <time>2011-10-22T07:51:16Z</time>
      </trkpt>
      <trkpt lat="45.98035" lon="3.00209">
        <ele>676</ele>
        <time>2011-10-22T07:51:28Z</time>
      </trkpt>
      <trkpt lat="45.98016" lon="3.00243">
        <ele>675</ele>
        <time>2011-10-22T07:51:40Z</time>
      </trkpt>
      <trkpt lat="45.97994" lon="3.00282">
        <ele>668</ele>
        <time>2011-10-22T07:51:54Z</time>
      </trkpt>
      <trkpt lat="45.97969" lon="3.00307">
        <ele>666</ele>
        <time>2011-10-22T07:52:06Z</time>
      </trkpt>
      <trkpt lat="45.97949" lon="3.00337">
        <ele>660</ele>
        <time>2011-10-22T07:52:17Z</time>
      </trkpt>
      <trkpt lat="45.97933" lon="3.00368">
        <ele>659</ele>
        <time>2011-10-22T07:52:28Z</time>
      </trkpt>
      <trkpt lat="45.97903" lon="3.00388">
        <ele>656</ele>
        <time>2011-10-22T07:52:42Z</time>
      </trkpt>
      <trkpt lat="45.97879" lon="3.00419">
        <ele>651</ele>
        <time>2011-10-22T07:52:54Z</time>
      </trkpt>
      <trkpt lat="45.97854" lon="3.00442">
        <ele>650</ele>
        <time>2011-10-22T07:53:06Z</time>
      </trkpt>
      <trkpt lat="45.97827" lon="3.00473">
        <ele>651</ele>
        <time>2011-10-22T07:53:20Z</time>
      </trkpt>
      <trkpt lat="45.97808" lon="3.00506">
        <ele>649</ele>
        <time>2011-10-22T07:53:32Z</time>
      </trkpt>
      <trkpt lat="45.97797" lon="3.00543">
        <ele>649</ele>
        <time>2011-10-22T07:53:43Z</time>
      </trkpt>
      <trkpt lat="45.97793" lon="3.00586">
        <ele>647</ele>
        <time>2011-10-22T07:53:55Z</time>
      </trkpt>
      <trkpt lat="45.97794" lon="3.00626">
        <ele>646</ele>
        <time>2011-10-22T07:54:06Z</time>
      </trkpt>
      <trkpt lat="45.97787" lon="3.0067">
        <ele>644</ele>
        <time>2011-10-22T07:54:19Z</time>
      </trkpt>
      <trkpt lat="45.97779" lon="3.00709">
        <ele>643</ele>
        <time>2011-10-22T07:54:31Z</time>
      </trkpt>
      <trkpt lat="45.97773" lon="3.00747">
        <ele>642</ele>
        <time>2011-10-22T07:54:41Z</time>
      </trkpt>
      <trkpt lat="45.9776" lon="3.00788">
        <ele>640</ele>
        <time>2011-10-22T07:54:54Z</time>
      </trkpt>
      <trkpt lat="45.97763" lon="3.00826">
        <ele>639</ele>
        <time>2011-10-22T07:55:04Z</time>
      </trkpt>
      <trkpt lat="45.97772" lon="3.00865">
        <ele>637</ele>
        <time>2011-10-22T07:55:16Z</time>
      </trkpt>
      <trkpt lat="45.9778" lon="3.00903">
        <ele>637</ele>
        <time>2011-10-22T07:55:27Z</time>
      </trkpt>
      <trkpt lat="45.97778" lon="3.00951">
        <ele>636</ele>
        <time>2011-10-22T07:55:40Z</time>
      </trkpt>
      <trkpt lat="45.97784" lon="3.00994">
        <ele>636</ele>
        <time>2011-10-22T07:55:53Z</time>
      </trkpt>
      <trkpt lat="45.97786" lon="3.0104">
        <ele>637</ele>
        <time>2011-10-22T07:56:06Z</time>
      </trkpt>
      <trkpt lat="45.97788" lon="3.01082">
        <ele>638</ele>
        <time>2011-10-22T07:56:17Z</time>
      </trkpt>
      <trkpt lat="45.97792" lon="3.01122">
        <ele>638</ele>
        <time>2011-10-22T07:56:29Z</time>
      </trkpt>
      <trkpt lat="45.97796" lon="3.01161">
        <ele>637</ele>
        <time>2011-10-22T07:56:39Z</time>
      </trkpt>
      <trkpt lat="45.97799" lon="3.01203">
        <ele>636</ele>
        <time>2011-10-22T07:56:51Z</time>
      </trkpt>
      <trkpt lat="45.97804" lon="3.01245">
        <ele>636</ele>
        <time>2011-10-22T07:57:03Z</time>
      </trkpt>
      <trkpt lat="45.97809" lon="3.01286">
        <ele>635</ele>
        <time>2011-10-22T07:57:15Z</time>
      </trkpt>
      <trkpt lat="45.97814" lon="3.01331">
        <ele>634</ele>
        <time>2011-10-22T07:57:27Z</time>
      </trkpt>
      <trkpt lat="45.97817" lon="3.01378">
        <ele>634</ele>
        <time>2011-10-22T07:57:41Z</time>
      </trkpt>
      <trkpt lat="45.9782" lon="3.01417">
        <ele>635</ele>
        <time>2011-10-22T07:57:51Z</time>
      </trkpt>
      <trkpt lat="45.97824" lon="3.01462">
        <ele>636</ele>
        <time>2011-10-22T07:58:04Z</time>
      </trkpt>
      <trkpt lat="45.97828" lon="3.01502">
        <ele>637</ele>
        <time>2011-10-22T07:58:16Z</time>
      </trkpt>
      <trkpt lat="45.97826" lon="3.01542">
        <ele>638</ele>
        <time>2011-10-22T07:58:27Z</time>
      </trkpt>
      <trkpt lat="45.9782" lon="3.01588">
        <ele>637</ele>
        <time>2011-10-22T07:58:40Z</time>
      </trkpt>
      <trkpt lat="45.97812" lon="3.01633">
        <ele>637</ele>
        <time>2011-10-22T07:58:53Z</time>
      </trkpt>
      <trkpt lat="45.97799" lon="3.01674">
        <ele>637</ele>
        <time>2011-10-22T07:59:05Z</time>
      </trkpt>
      <trkpt lat="45.97784" lon="3.01715">
        <ele>637</ele>
        <time>2011-10-22T07:59:18Z</time>
      </trkpt>
      <trkpt lat="45.97769" lon="3.01758">
        <ele>638</ele>
        <time>2011-10-22T07:59:32Z</time>
      </trkpt>
      <trkpt lat="45.97758" lon="3.018">
        <ele>638</ele>
        <time>2011-10-22T07:59:44Z</time>
      </trkpt>
      <trkpt lat="45.97754" lon="3.0183">
        <ele>640</ele>
        <time>2011-10-22T07:59:52Z</time>
      </trkpt>
      <trkpt lat="45.97747" lon="3.01868">
        <ele>643</ele>
        <time>2011-10-22T08:00:04Z</time>
      </trkpt>
      <trkpt lat="45.97736" lon="3.01905">
        <ele>644</ele>
        <time>2011-10-22T08:00:15Z</time>
      </trkpt>
      <trkpt lat="45.97722" lon="3.01941">
        <ele>645</ele>
        <time>2011-10-22T08:00:26Z</time>
      </trkpt>
      <trkpt lat="45.97701" lon="3.01978">
        <ele>646</ele>
        <time>2011-10-22T08:00:40Z</time>
      </trkpt>
      <trkpt lat="45.97676" lon="3.02007">
        <ele>646</ele>
        <time>2011-10-22T08:00:52Z</time>
      </trkpt>
      <trkpt lat="45.97651" lon="3.02035">
        <ele>648</ele>
        <time>2011-10-22T08:01:05Z</time>
      </trkpt>
      <trkpt lat="45.97627" lon="3.02062">
        <ele>649</ele>
        <time>2011-10-22T08:01:17Z</time>
      </trkpt>
      <trkpt lat="45.97602" lon="3.02089">
        <ele>648</ele>
        <time>2011-10-22T08:01:30Z</time>
      </trkpt>
      <trkpt lat="45.97579" lon="3.0212">
        <ele>652</ele>
        <time>2011-10-22T08:01:42Z</time>
      </trkpt>
      <trkpt lat="45.97558" lon="3.02147">
        <ele>652</ele>
        <time>2011-10-22T08:01:54Z</time>
      </trkpt>
      <trkpt lat="45.97538" lon="3.02173">
        <ele>651</ele>
        <time>2011-10-22T08:02:05Z</time>
      </trkpt>
      <trkpt lat="45.97516" lon="3.02199">
        <ele>652</ele>
        <time>2011-10-22T08:02:16Z</time>
      </trkpt>
      <trkpt lat="45.97492" lon="3.02226">
        <ele>653</ele>
        <time>2011-10-22T08:02:28Z</time>
      </trkpt>
      <trkpt lat="45.97466" lon="3.02247">
        <ele>654</ele>
        <time>2011-10-22T08:02:40Z</time>
      </trkpt>
      <trkpt lat="45.97438" lon="3.0226">
        <ele>652</ele>
        <time>2011-10-22T08:02:52Z</time>
      </trkpt>
      <trkpt lat="45.97413" lon="3.02288">
        <ele>655</ele>
        <time>2011-10-22T08:03:05Z</time>
      </trkpt>
      <trkpt lat="45.97392" lon="3.0232">
        <ele>655</ele>
        <time>2011-10-22T08:03:17Z</time>
      </trkpt>
      <trkpt lat="45.97378" lon="3.02358">
        <ele>654</ele>
        <time>2011-10-22T08:03:29Z</time>
      </trkpt>
      <trkpt lat="45.97359" lon="3.02393">
        <ele>655</ele>
        <time>2011-10-22T08:03:41Z</time>
      </trkpt>
      <trkpt lat="45.97338" lon="3.02427">
        <ele>655</ele>
        <time>2011-10-22T08:03:54Z</time>
      </trkpt>
      <trkpt lat="45.97318" lon="3.02457">
        <ele>655</ele>
        <time>2011-10-22T08:04:06Z</time>
      </trkpt>
      <trkpt lat="45.97296" lon="3.02481">
        <ele>655</ele>
        <time>2011-10-22T08:04:16Z</time>
      </trkpt>
      <trkpt lat="45.9728" lon="3.02517">
        <ele>653</ele>
        <time>2011-10-22T08:04:28Z</time>
      </trkpt>
      <trkpt lat="45.97259" lon="3.02553">
        <ele>653</ele>
        <time>2011-10-22T08:04:42Z</time>
      </trkpt>
      <trkpt lat="45.97235" lon="3.02586">
        <ele>651</ele>
        <time>2011-10-22T08:04:55Z</time>
      </trkpt>
      <trkpt lat="45.97209" lon="3.02611">
        <ele>650</ele>
        <time>2011-10-22T08:05:07Z</time>
      </trkpt>
      <trkpt lat="45.97183" lon="3.02635">
        <ele>650</ele>
        <time>2011-10-22T08:05:20Z</time>
      </trkpt>
      <trkpt lat="45.97163" lon="3.02663">
        <ele>649</ele>
        <time>2011-10-22T08:05:31Z</time>
      </trkpt>
      <trkpt lat="45.97134" lon="3.02679">
        <ele>645</ele>
        <time>2011-10-22T08:05:43Z</time>
      </trkpt>
      <trkpt lat="45.97102" lon="3.02677">
        <ele>643</ele>
        <time>2011-10-22T08:05:56Z</time>
      </trkpt>
      <trkpt lat="45.97073" lon="3.02676">
        <ele>641</ele>
        <time>2011-10-22T08:06:08Z</time>
      </trkpt>
      <trkpt lat="45.9704" lon="3.02668">
        <ele>639</ele>
        <time>2011-10-22T08:06:21Z</time>
      </trkpt>
      <trkpt lat="45.97009" lon="3.02668">
        <ele>637</ele>
        <time>2011-10-22T08:06:33Z</time>
      </trkpt>
      <trkpt lat="45.96979" lon="3.02671">
        <ele>636</ele>
        <time>2011-10-22T08:06:45Z</time>
      </trkpt>
      <trkpt lat="45.9695" lon="3.02675">
        <ele>635</ele>
        <time>2011-10-22T08:06:57Z</time>
      </trkpt>
      <trkpt lat="45.96919" lon="3.02673">
        <ele>635</ele>
        <time>2011-10-22T08:07:09Z</time>
      </trkpt>
      <trkpt lat="45.9689" lon="3.02669">
        <ele>635</ele>
        <time>2011-10-22T08:07:21Z</time>
      </trkpt>
      <trkpt lat="45.96866" lon="3.02688">
        <ele>635</ele>
        <time>2011-10-22T08:07:32Z</time>
      </trkpt>
      <trkpt lat="45.96864" lon="3.02728">
        <ele>635</ele>
        <time>2011-10-22T08:07:43Z</time>
      </trkpt>
      <trkpt lat="45.96862" lon="3.02769">
        <ele>633</ele>
        <time>2011-10-22T08:07:55Z</time>
      </trkpt>
      <trkpt lat="45.96845" lon="3.02806">
        <ele>633</ele>
        <time>2011-10-22T08:08:07Z</time>
      </trkpt>
      <trkpt lat="45.96818" lon="3.02829">
        <ele>635</ele>
        <time>2011-10-22T08:08:20Z</time>
      </trkpt>
      <trkpt lat="45.96786" lon="3.02842">
        <ele>635</ele>
        <time>2011-10-22T08:08:33Z</time>
      </trkpt>
      <trkpt lat="45.96759" lon="3.02847">
        <ele>636</ele>
        <time>2011-10-22T08:08:44Z</time>
      </trkpt>
      <trkpt lat="45.96732" lon="3.02846">
        <ele>638</ele>
        <time>2011-10-22T08:08:55Z</time>
      </trkpt>
      <trkpt lat="45.96702" lon="3.02838">
        <ele>638</ele>
        <time>2011-10-22T08:09:07Z</time>
      </trkpt>
      <trkpt lat="45.96677" lon="3.02812">
        <ele>641</ele>
        <time>2011-10-22T08:09:19Z</time>
      </trkpt>
      <trkpt lat="45.96653" lon="3.02783">
        <ele>644</ele>
        <time>2011-10-22T08:09:32Z</time>
      </trkpt>
      <trkpt lat="45.96626" lon="3.02772">
        <ele>645</ele>
        <time>2011-10-22T08:09:43Z</time>
      </trkpt>
      <trkpt lat="45.96607" lon="3.02806">
        <ele>644</ele>
        <time>2011-10-22T08:09:55Z</time>
      </trkpt>
      <trkpt lat="45.96592" lon="3.02843">
        <ele>644</ele>
        <time>2011-10-22T08:10:07Z</time>
      </trkpt>
      <trkpt lat="45.96578" lon="3.02877">
        <ele>648</ele>
        <time>2011-10-22T08:10:18Z</time>
      </trkpt>
      <trkpt lat="45.96563" lon="3.0291">
        <ele>648</ele>
        <time>2011-10-22T08:10:29Z</time>
      </trkpt>
      <trkpt lat="45.96552" lon="3.02946">
        <ele>649</ele>
        <time>2011-10-22T08:10:40Z</time>
      </trkpt>
      <trkpt lat="45.96555" lon="3.02989">
        <ele>648</ele>
        <time>2011-10-22T08:10:52Z</time>
      </trkpt>
      <trkpt lat="45.96557" lon="3.0303">
        <ele>646</ele>
        <time>2011-10-22T08:11:03Z</time>
      </trkpt>
      <trkpt lat="45.96556" lon="3.03073">
        <ele>645</ele>
        <time>2011-10-22T08:11:15Z</time>
      </trkpt>
      <trkpt lat="45.96541" lon="3.03113">
        <ele>643</ele>
        <time>2011-10-22T08:11:28Z</time>
      </trkpt>
      <trkpt lat="45.96517" lon="3.03134">
        <ele>643</ele>
        <time>2011-10-22T08:11:39Z</time>
      </trkpt>
      <trkpt lat="45.96489" lon="3.03141">
        <ele>644</ele>
        <time>2011-10-22T08:11:51Z</time>
      </trkpt>
      <trkpt lat="45.96458" lon="3.0316">
        <ele>644</ele>
        <time>2011-10-22T08:12:04Z</time>
      </trkpt>
      <trkpt lat="45.96432" lon="3.03174">
        <ele>641</ele>
        <time>2011-10-22T08:12:15Z</time>
      </trkpt>
      <trkpt lat="45.964" lon="3.03189">
        <ele>640</ele>
        <time>2011-10-22T08:12:29Z</time>
      </trkpt>
      <trkpt lat="45.96374" lon="3.03207">
        <ele>638</ele>
        <time>2011-10-22T08:12:41Z</time>
      </trkpt>
      <trkpt lat="45.96358" lon="3.0324">
        <ele>636</ele>
        <time>2011-10-22T08:12:52Z</time>
      </trkpt>
      <trkpt lat="45.96348" lon="3.03282">
        <ele>632</ele>
        <time>2011-10-22T08:13:04Z</time>
      </trkpt>
      <trkpt lat="45.96322" lon="3.03305">
        <ele>633</ele>
        <time>2011-10-22T08:13:16Z</time>
      </trkpt>
      <trkpt lat="45.96295" lon="3.03303">
        <ele>633</ele>
        <time>2011-10-22T08:13:27Z</time>
      </trkpt>
      <trkpt lat="45.96267" lon="3.03298">
        <ele>634</ele>
        <time>2011-10-22T08:13:38Z</time>
      </trkpt>
      <trkpt lat="45.9624" lon="3.03316">
        <ele>636</ele>
        <time>2011-10-22T08:13:50Z</time>
      </trkpt>
      <trkpt lat="45.96245" lon="3.03355">
        <ele>637</ele>
        <time>2011-10-22T08:14:01Z</time>
      </trkpt>
      <trkpt lat="45.96266" lon="3.03389">
        <ele>635</ele>
        <time>2011-10-22T08:14:14Z</time>
      </trkpt>
      <trkpt lat="45.96286" lon="3.03423">
        <ele>637</ele>
        <time>2011-10-22T08:14:27Z</time>
      </trkpt>
      <trkpt lat="45.96285" lon="3.03457">
        <ele>638</ele>
        <time>2011-10-22T08:14:36Z</time>
      </trkpt>
      <trkpt lat="45.96252" lon="3.03451">
        <ele>639</ele>
        <time>2011-10-22T08:14:49Z</time>
      </trkpt>
      <trkpt lat="45.96219" lon="3.03451">
        <ele>641</ele>
        <time>2011-10-22T08:15:03Z</time>
      </trkpt>
      <trkpt lat="45.96194" lon="3.03476">
        <ele>641</ele>
        <time>2011-10-22T08:15:15Z</time>
      </trkpt>
      <trkpt lat="45.96167" lon="3.03503">
        <ele>641</ele>
        <time>2011-10-22T08:15:28Z</time>
      </trkpt>
      <trkpt lat="45.96138" lon="3.03526">
        <ele>639</ele>
        <time>2011-10-22T08:15:41Z</time>
      </trkpt>
      <trkpt lat="45.96114" lon="3.03551">
        <ele>638</ele>
        <time>2011-10-22T08:15:53Z</time>
      </trkpt>
      <trkpt lat="45.96089" lon="3.03577">
        <ele>636</ele>
        <time>2011-10-22T08:16:06Z</time>
      </trkpt>
      <trkpt lat="45.96062" lon="3.03607">
        <ele>634</ele>
        <time>2011-10-22T08:16:19Z</time>
      </trkpt>
      <trkpt lat="45.96039" lon="3.0363">
        <ele>634</ele>
        <time>2011-10-22T08:16:30Z</time>
      </trkpt>
      <trkpt lat="45.96011" lon="3.0364">
        <ele>634</ele>
        <time>2011-10-22T08:16:42Z</time>
      </trkpt>
      <trkpt lat="45.95979" lon="3.0365">
        <ele>635</ele>
        <time>2011-10-22T08:16:55Z</time>
      </trkpt>
      <trkpt lat="45.9595" lon="3.03665">
        <ele>635</ele>
        <time>2011-10-22T08:17:07Z</time>
      </trkpt>
      <trkpt lat="45.95924" lon="3.03673">
        <ele>634</ele>
        <time>2011-10-22T08:17:18Z</time>
      </trkpt>
      <trkpt lat="45.95894" lon="3.03684">
        <ele>634</ele>
        <time>2011-10-22T08:17:30Z</time>
      </trkpt>
      <trkpt lat="45.95865" lon="3.03687">
        <ele>634</ele>
        <time>2011-10-22T08:17:42Z</time>
      </trkpt>
      <trkpt lat="45.95833" lon="3.03691">
        <ele>635</ele>
        <time>2011-10-22T08:17:55Z</time>
      </trkpt>
      <trkpt lat="45.95802" lon="3.03691">
        <ele>635</ele>
        <time>2011-10-22T08:18:07Z</time>
      </trkpt>
      <trkpt lat="45.95775" lon="3.03681">
        <ele>635</ele>
        <time>2011-10-22T08:18:18Z</time>
      </trkpt>
      <trkpt lat="45.95746" lon="3.03665">
        <ele>637</ele>
        <time>2011-10-22T08:18:31Z</time>
      </trkpt>
      <trkpt lat="45.95716" lon="3.03647">
        <ele>637</ele>
        <time>2011-10-22T08:18:44Z</time>
      </trkpt>
      <trkpt lat="45.9569" lon="3.03633">
        <ele>637</ele>
        <time>2011-10-22T08:18:55Z</time>
      </trkpt>
      <trkpt lat="45.95663" lon="3.03618">
        <ele>637</ele>
        <time>2011-10-22T08:19:07Z</time>
      </trkpt>
      <trkpt lat="45.95637" lon="3.03605">
        <ele>636</ele>
        <time>2011-10-22T08:19:18Z</time>
      </trkpt>
      <trkpt lat="45.95617" lon="3.036">
        <ele>636</ele>
        <time>2011-10-22T08:19:26Z</time>
      </trkpt>
      <trkpt lat="45.95606" lon="3.03565">
        <ele>638</ele>
        <time>2011-10-22T08:19:36Z</time>
      </trkpt>
      <trkpt lat="45.95581" lon="3.03536">
        <ele>638</ele>
        <time>2011-10-22T08:19:49Z</time>
      </trkpt>
      <trkpt lat="45.95566" lon="3.03497">
        <ele>640</ele>
        <time>2011-10-22T08:20:02Z</time>
      </trkpt>
      <trkpt lat="45.95552" lon="3.03464">
        <ele>640</ele>
        <time>2011-10-22T08:20:12Z</time>
      </trkpt>
      <trkpt lat="45.95538" lon="3.0343">
        <ele>641</ele>
        <time>2011-10-22T08:20:23Z</time>
      </trkpt>
      <trkpt lat="45.95516" lon="3.03392">
        <ele>642</ele>
        <time>2011-10-22T08:20:37Z</time>
      </trkpt>
      <trkpt lat="45.95494" lon="3.03359">
        <ele>642</ele>
        <time>2011-10-22T08:20:50Z</time>
      </trkpt>
      <trkpt lat="45.95472" lon="3.03324">
        <ele>643</ele>
        <time>2011-10-22T08:21:03Z</time>
      </trkpt>
      <trkpt lat="45.95452" lon="3.0329">
        <ele>643</ele>
        <time>2011-10-22T08:21:15Z</time>
      </trkpt>
      <trkpt lat="45.95433" lon="3.03253">
        <ele>643</ele>
        <time>2011-10-22T08:21:28Z</time>
      </trkpt>
      <trkpt lat="45.9542" lon="3.03212">
        <ele>645</ele>
        <time>2011-10-22T08:21:41Z</time>
      </trkpt>
      <trkpt lat="45.95407" lon="3.03174">
        <ele>644</ele>
        <time>2011-10-22T08:21:53Z</time>
      </trkpt>
      <trkpt lat="45.95391" lon="3.03139">
        <ele>645</ele>
        <time>2011-10-22T08:22:04Z</time>
      </trkpt>
      <trkpt lat="45.95372" lon="3.03106">
        <ele>645</ele>
        <time>2011-10-22T08:22:16Z</time>
      </trkpt>
      <trkpt lat="45.95354" lon="3.0307">
        <ele>645</ele>
        <time>2011-10-22T08:22:28Z</time>
      </trkpt>
      <trkpt lat="45.95338" lon="3.03032">
        <ele>645</ele>
        <time>2011-10-22T08:22:40Z</time>
      </trkpt>
      <trkpt lat="45.95323" lon="3.02996">
        <ele>642</ele>
        <time>2011-10-22T08:22:52Z</time>
      </trkpt>
      <trkpt lat="45.95304" lon="3.0296">
        <ele>640</ele>
        <time>2011-10-22T08:23:05Z</time>
      </trkpt>
      <trkpt lat="45.95287" lon="3.02925">
        <ele>639</ele>
        <time>2011-10-22T08:23:17Z</time>
      </trkpt>
      <trkpt lat="45.95268" lon="3.0289">
        <ele>638</ele>
        <time>2011-10-22T08:23:29Z</time>
      </trkpt>
      <trkpt lat="45.95252" lon="3.02855">
        <ele>637</ele>
        <time>2011-10-22T08:23:41Z</time>
      </trkpt>
      <trkpt lat="45.95244" lon="3.02812">
        <ele>635</ele>
        <time>2011-10-22T08:23:53Z</time>
      </trkpt>
      <trkpt lat="45.95245" lon="3.0277">
        <ele>635</ele>
        <time>2011-10-22T08:24:05Z</time>
      </trkpt>
      <trkpt lat="45.95226" lon="3.02734">
        <ele>637</ele>
        <time>2011-10-22T08:24:17Z</time>
      </trkpt>
      <trkpt lat="45.95199" lon="3.0271">
        <ele>638</ele>
        <time>2011-10-22T08:24:30Z</time>
      </trkpt>
      <trkpt lat="45.95193" lon="3.02666">
        <ele>643</ele>
        <time>2011-10-22T08:24:42Z</time>
      </trkpt>
      <trkpt lat="45.9518" lon="3.02639">
        <ele>644</ele>
        <time>2011-10-22T08:24:51Z</time>
      </trkpt>
      <trkpt lat="45.95155" lon="3.02667">
        <ele>644</ele>
        <time>2011-10-22T08:25:04Z</time>
      </trkpt>
      <trkpt lat="45.95131" lon="3.02684">
        <ele>645</ele>
        <time>2011-10-22T08:25:15Z</time>
      </trkpt>
      <trkpt lat="45.95103" lon="3.02694">
        <ele>647</ele>
        <time>2011-10-22T08:25:27Z</time>
      </trkpt>
      <trkpt lat="45.95072" lon="3.02698">
        <ele>650</ele>
        <time>2011-10-22T08:25:39Z</time>
      </trkpt>
      <trkpt lat="45.95045" lon="3.02697">
        <ele>650</ele>
        <time>2011-10-22T08:25:50Z</time>
      </trkpt>
      <trkpt lat="45.95015" lon="3.02696">
        <ele>651</ele>
        <time>2011-10-22T08:26:02Z</time>
      </trkpt>
      <trkpt lat="45.94985" lon="3.02716">
        <ele>654</ele>
        <time>2011-10-22T08:26:15Z</time>
      </trkpt>
      <trkpt lat="45.9497" lon="3.02757">
        <ele>653</ele>
        <time>2011-10-22T08:26:28Z</time>
      </trkpt>
      <trkpt lat="45.94954" lon="3.02792">
        <ele>654</ele>
        <time>2011-10-22T08:26:39Z</time>
      </trkpt>
      <trkpt lat="45.94931" lon="3.02818">
        <ele>655</ele>
        <time>2011-10-22T08:26:51Z</time>
      </trkpt>
      <trkpt lat="45.94919" lon="3.02858">
        <ele>653</ele>
        <time>2011-10-22T08:27:04Z</time>
      </trkpt>
      <trkpt lat="45.94914" lon="3.029">
        <ele>656</ele>
        <time>2011-10-22T08:27:15Z</time>
      </trkpt>
      <trkpt lat="45.94905" lon="3.02944">
        <ele>654</ele>
        <time>2011-10-22T08:27:28Z</time>
      </trkpt>
      <trkpt lat="45.9489" lon="3.02983">
        <ele>653</ele>
        <time>2011-10-22T08:27:41Z</time>
      </trkpt>
      <trkpt lat="45.94875" lon="3.03019">
        <ele>651</ele>
        <time>2011-10-22T08:27:52Z</time>
      </trkpt>
      <trkpt lat="45.94858" lon="3.03055">
        <ele>650</ele>
        <time>2011-10-22T08:28:04Z</time>
      </trkpt>
      <trkpt lat="45.94845" lon="3.03089">
        <ele>648</ele>
        <time>2011-10-22T08:28:15Z</time>
      </trkpt>
      <trkpt lat="45.94828" lon="3.03122">
        <ele>649</ele>
        <time>2011-10-22T08:28:27Z</time>
      </trkpt>
      <trkpt lat="45.94802" lon="3.03137">
        <ele>649</ele>
        <time>2011-10-22T08:28:38Z</time>
      </trkpt>
      <trkpt lat="45.94779" lon="3.03164">
        <ele>649</ele>
        <time>2011-10-22T08:28:50Z</time>
      </trkpt>
      <trkpt lat="45.94754" lon="3.03189">
        <ele>646</ele>
        <time>2011-10-22T08:29:02Z</time>
      </trkpt>
      <trkpt lat="45.94732" lon="3.03215">
        <ele>646</ele>
        <time>2011-10-22T08:29:13Z</time>
      </trkpt>
      <trkpt lat="45.94706" lon="3.0324">
        <ele>645</ele>
        <time>2011-10-22T08:29:26Z</time>
      </trkpt>
      <trkpt lat="45.94686" lon="3.03282">
        <ele>642</ele>
        <time>2011-10-22T08:29:40Z</time>
      </trkpt>
      <trkpt lat="45.94669" lon="3.03315">
        <ele>641</ele>
        <time>2011-10-22T08:29:51Z</time>
      </trkpt>
      <trkpt lat="45.94654" lon="3.0336">
        <ele>638</ele>
        <time>2011-10-22T08:30:05Z</time>
      </trkpt>
      <trkpt lat="45.94654" lon="3.034">
        <ele>637</ele>
        <time>2011-10-22T08:30:17Z</time>
      </trkpt>
      <trkpt lat="45.94652" lon="3.03434">
        <ele>635</ele>
        <time>2011-10-22T08:30:26Z</time>
      </trkpt>
      <trkpt lat="45.94653" lon="3.03476">
        <ele>634</ele>
        <time>2011-10-22T08:30:38Z</time>
      </trkpt>
      <trkpt lat="45.94655" lon="3.03521">
        <ele>631</ele>
        <time>2011-10-22T08:30:50Z</time>
      </trkpt>
      <trkpt lat="45.94636" lon="3.03552">
        <ele>629</ele>
        <time>2011-10-22T08:31:02Z</time>
      </trkpt>
      <trkpt lat="45.94625" lon="3.03595">
        <ele>625</ele>
        <time>2011-10-22T08:31:15Z</time>
      </trkpt>
      <trkpt lat="45.94613" lon="3.0364">
        <ele>624</ele>
        <time>2011-10-22T08:31:28Z</time>
      </trkpt>
      <trkpt lat="45.94603" lon="3.03683">
        <ele>622</ele>
        <time>2011-10-22T08:31:41Z</time>
      </trkpt>
      <trkpt lat="45.94589" lon="3.03718">
        <ele>621</ele>
        <time>2011-10-22T08:31:52Z</time>
      </trkpt>
      <trkpt lat="45.94564" lon="3.03743">
        <ele>617</ele>
        <time>2011-10-22T08:32:04Z</time>
      </trkpt>
      <trkpt lat="45.94536" lon="3.03726">
        <ele>614</ele>
        <time>2011-10-22T08:32:16Z</time>
      </trkpt>
      <trkpt lat="45.94528" lon="3.03684">
        <ele>613</ele>
        <time>2011-10-22T08:32:28Z</time>
      </trkpt>
      <trkpt lat="45.94523" lon="3.03642">
        <ele>615</ele>
        <time>2011-10-22T08:32:40Z</time>
      </trkpt>
      <trkpt lat="45.94518" lon="3.03601">
        <ele>615</ele>
        <time>2011-10-22T08:32:52Z</time>
      </trkpt>
      <trkpt lat="45.94505" lon="3.03556">
        <ele>618</ele>
        <time>2011-10-22T08:33:05Z</time>
      </trkpt>
      <trkpt lat="45.9449" lon="3.03524">
        <ele>618</ele>
        <time>2011-10-22T08:33:16Z</time>
      </trkpt>
      <trkpt lat="45.94462" lon="3.0353">
        <ele>619</ele>
        <time>2011-10-22T08:33:27Z</time>
      </trkpt>
      <trkpt lat="45.94439" lon="3.03561">
        <ele>619</ele>
        <time>2011-10-22T08:33:40Z</time>
      </trkpt>
      <trkpt lat="45.9443" lon="3.03604">
        <ele>615</ele>
        <time>2011-10-22T08:33:53Z</time>
      </trkpt>
      <trkpt lat="45.94431" lon="3.03644">
        <ele>614</ele>
        <time>2011-10-22T08:34:04Z</time>
      </trkpt>
      <trkpt lat="45.94426" lon="3.03684">
        <ele>612</ele>
        <time>2011-10-22T08:34:15Z</time>
      </trkpt>
      <trkpt lat="45.94395" lon="3.0368">
        <ele>614</ele>
        <time>2011-10-22T08:34:27Z</time>
      </trkpt>
      <trkpt lat="45.94364" lon="3.03675">
        <ele>614</ele>
        <time>2011-10-22T08:34:40Z</time>
      </trkpt>
      <trkpt lat="45.94334" lon="3.03676">
        <ele>616</ele>
        <time>2011-10-22T08:34:52Z</time>
      </trkpt>
      <trkpt lat="45.94304" lon="3.03686">
        <ele>617</ele>
        <time>2011-10-22T08:35:05Z</time>
      </trkpt>
      <trkpt lat="45.94278" lon="3.03669">
        <ele>619</ele>
        <time>2011-10-22T08:35:16Z</time>
      </trkpt>
      <trkpt lat="45.94252" lon="3.03655">
        <ele>621</ele>
        <time>2011-10-22T08:35:27Z</time>
      </trkpt>
      <trkpt lat="45.94253" lon="3.03704">
        <ele>619</ele>
        <time>2011-10-22T08:35:41Z</time>
      </trkpt>
      <trkpt lat="45.9425" lon="3.03743">
        <ele>620</ele>
        <time>2011-10-22T08:35:52Z</time>
      </trkpt>
      <trkpt lat="45.94239" lon="3.03784">
        <ele>624</ele>
        <time>2011-10-22T08:36:04Z</time>
      </trkpt>
      <trkpt lat="45.94222" lon="3.03814">
        <ele>624</ele>
        <time>2011-10-22T08:36:15Z</time>
      </trkpt>
      <trkpt lat="45.94196" lon="3.03841">
        <ele>625</ele>
        <time>2011-10-22T08:36:27Z</time>
      </trkpt>
      <trkpt lat="45.94174" lon="3.03864">
        <ele>625</ele>
        <time>2011-10-22T08:36:39Z</time>
      </trkpt>
      <trkpt lat="45.94155" lon="3.03898">
        <ele>628</ele>
        <time>2011-10-22T08:36:51Z</time>
      </trkpt>
      <trkpt lat="45.94135" lon="3.03932">
        <ele>627</ele>
        <time>2011-10-22T08:37:03Z</time>
      </trkpt>
      <trkpt lat="45.9412" lon="3.03965">
        <ele>627</ele>
        <time>2011-10-22T08:37:14Z</time>
      </trkpt>
      <trkpt lat="45.94089" lon="3.03976">
        <ele>628</ele>
        <time>2011-10-22T08:37:27Z</time>
      </trkpt>
      <trkpt lat="45.94069" lon="3.04015">
        <ele>630</ele>
        <time>2011-10-22T08:37:40Z</time>
      </trkpt>
      <trkpt lat="45.94059" lon="3.04052">
        <ele>630</ele>
        <time>2011-10-22T08:37:51Z</time>
      </trkpt>
      <trkpt lat="45.94048" lon="3.04092">
        <ele>627</ele>
        <time>2011-10-22T08:38:03Z</time>
      </trkpt>
      <trkpt lat="45.94028" lon="3.04122">
        <ele>628</ele>
        <time>2011-10-22T08:38:15Z</time>
      </trkpt>
      <trkpt lat="45.94002" lon="3.04146">
        <ele>628</ele>
        <time>2011-10-22T08:38:27Z</time>
      </trkpt>
      <trkpt lat="45.93986" lon="3.04179">
        <ele>634</ele>
        <time>2011-10-22T08:38:38Z</time>
      </trkpt>
      <trkpt lat="45.93993" lon="3.04226">
        <ele>636</ele>
        <time>2011-10-22T08:38:52Z</time>
      </trkpt>
      <trkpt lat="45.93995" lon="3.04265">
        <ele>637</ele>
        <time>2011-10-22T08:39:03Z</time>
      </trkpt>
      <trkpt lat="45.94" lon="3.04304">
        <ele>632</ele>
        <time>2011-10-22T08:39:14Z</time>
      </trkpt>
      <trkpt lat="45.93996" lon="3.04347">
        <ele>642</ele>
        <time>2011-10-22T08:39:26Z</time>
      </trkpt>
      <trkpt lat="45.93996" lon="3.04388">
        <ele>642</ele>
        <time>2011-10-22T08:39:37Z</time>
      </trkpt>
      <trkpt lat="45.93986" lon="3.04426">
        <ele>639</ele>
        <time>2011-10-22T08:39:49Z</time>
      </trkpt>
      <trkpt lat="45.9396" lon="3.04445">
        <ele>640</ele>
        <time>2011-10-22T08:40:00Z</time>
      </trkpt>
      <trkpt lat="45.93938" lon="3.04476">
        <ele>639</ele>
        <time>2011-10-22T08:40:13Z</time>
      </trkpt>
      <trkpt lat="45.93919" lon="3.04504">
        <ele>638</ele>
        <time>2011-10-22T08:40:24Z</time>
      </trkpt>
      <trkpt lat="45.939" lon="3.04534">
        <ele>637</ele>
        <time>2011-10-22T08:40:35Z</time>
      </trkpt>
      <trkpt lat="45.93877" lon="3.04558">
        <ele>637</ele>
        <time>2011-10-22T08:40:47Z</time>
      </trkpt>
      <trkpt lat="45.93854" lon="3.04588">
        <ele>636</ele>
        <time>2011-10-22T08:40:59Z</time>
      </trkpt>
      <trkpt lat="45.93847" lon="3.0463">
        <ele>635</ele>
        <time>2011-10-22T08:41:11Z</time>
      </trkpt>
      <trkpt lat="45.93847" lon="3.0467">
        <ele>636</ele>
        <time>2011-10-22T08:41:22Z</time>
      </trkpt>
      <trkpt lat="45.93845" lon="3.04713">
        <ele>637</ele>
        <time>2011-10-22T08:41:34Z</time>
      </trkpt>
      <trkpt lat="45.93847" lon="3.04752">
        <ele>639</ele>
        <time>2011-10-22T08:41:45Z</time>
      </trkpt>
      <trkpt lat="45.93849" lon="3.04793">
        <ele>640</ele>
        <time>2011-10-22T08:41:56Z</time>
      </trkpt>
      <trkpt lat="45.93852" lon="3.04838">
        <ele>641</ele>
        <time>2011-10-22T08:42:09Z</time>
      </trkpt>
      <trkpt lat="45.93854" lon="3.0488">
        <ele>641</ele>
        <time>2011-10-22T08:42:21Z</time>
      </trkpt>
      <trkpt lat="45.93854" lon="3.04923">
        <ele>640</ele>
        <time>2011-10-22T08:42:33Z</time>
      </trkpt>
      <trkpt lat="45.93852" lon="3.04972">
        <ele>639</ele>
        <time>2011-10-22T08:42:46Z</time>
      </trkpt>
      <trkpt lat="45.93859" lon="3.05014">
        <ele>636</ele>
        <time>2011-10-22T08:42:58Z</time>
      </trkpt>
      <trkpt lat="45.93876" lon="3.0505">
        <ele>637</ele>
        <time>2011-10-22T08:43:11Z</time>
      </trkpt>
      <trkpt lat="45.93896" lon="3.05083">
        <ele>638</ele>
        <time>2011-10-22T08:43:23Z</time>
      </trkpt>
      <trkpt lat="45.93907" lon="3.05118">
        <ele>632</ele>
        <time>2011-10-22T08:43:34Z</time>
      </trkpt>
      <trkpt lat="45.93901" lon="3.05155">
        <ele>630</ele>
        <time>2011-10-22T08:43:44Z</time>
      </trkpt>
      <trkpt lat="45.93873" lon="3.05143">
        <ele>628</ele>
        <time>2011-10-22T08:43:56Z</time>
      </trkpt>
      <trkpt lat="45.93849" lon="3.05123">
        <ele>628</ele>
        <time>2011-10-22T08:44:07Z</time>
      </trkpt>
      <trkpt lat="45.93823" lon="3.05131">
        <ele>617</ele>
        <time>2011-10-22T08:44:18Z</time>
      </trkpt>
      <trkpt lat="45.93792" lon="3.05141">
        <ele>614</ele>
        <time>2011-10-22T08:44:30Z</time>
      </trkpt>
      <trkpt lat="45.93764" lon="3.05146">
        <ele>611</ele>
        <time>2011-10-22T08:44:42Z</time>
      </trkpt>
      <trkpt lat="45.93738" lon="3.05135">
        <ele>599</ele>
        <time>2011-10-22T08:44:52Z</time>
      </trkpt>
      <trkpt lat="45.93728" lon="3.05093">
        <ele>600</ele>
        <time>2011-10-22T08:45:05Z</time>
      </trkpt>
      <trkpt lat="45.93726" lon="3.05044">
        <ele>600</ele>
        <time>2011-10-22T08:45:18Z</time>
      </trkpt>
      <trkpt lat="45.93707" lon="3.05028">
        <ele>598</ele>
        <time>2011-10-22T08:45:27Z</time>
      </trkpt>
      <trkpt lat="45.9369" lon="3.05032">
        <ele>595</ele>
        <time>2011-10-22T08:45:34Z</time>
      </trkpt>
      <trkpt lat="45.93665" lon="3.05058">
        <ele>579</ele>
        <time>2011-10-22T08:45:46Z</time>
      </trkpt>
      <trkpt lat="45.93643" lon="3.05044">
        <ele>575</ele>
        <time>2011-10-22T08:45:56Z</time>
      </trkpt>
      <trkpt lat="45.93616" lon="3.05044">
        <ele>571</ele>
        <time>2011-10-22T08:46:07Z</time>
      </trkpt>
      <trkpt lat="45.93595" lon="3.05062">
        <ele>568</ele>
        <time>2011-10-22T08:46:17Z</time>
      </trkpt>
      <trkpt lat="45.93575" lon="3.05091">
        <ele>556</ele>
        <time>2011-10-22T08:46:28Z</time>
      </trkpt>
      <trkpt lat="45.9356" lon="3.05126">
        <ele>551</ele>
        <time>2011-10-22T08:46:40Z</time>
      </trkpt>
      <trkpt lat="45.9356" lon="3.05164">
        <ele>554</ele>
        <time>2011-10-22T08:46:50Z</time>
      </trkpt>
      <trkpt lat="45.93576" lon="3.05198">
        <ele>552</ele>
        <time>2011-10-22T08:47:02Z</time>
      </trkpt>
      <trkpt lat="45.93602" lon="3.05222">
        <ele>566</ele>
        <time>2011-10-22T08:47:14Z</time>
      </trkpt>
      <trkpt lat="45.9363" lon="3.05223">
        <ele>569</ele>
        <time>2011-10-22T08:47:25Z</time>
      </trkpt>
      <trkpt lat="45.93659" lon="3.05229">
        <ele>572</ele>
        <time>2011-10-22T08:47:37Z</time>
      </trkpt>
      <trkpt lat="45.93673" lon="3.05254">
        <ele>577</ele>
        <time>2011-10-22T08:47:46Z</time>
      </trkpt>
      <trkpt lat="45.93653" lon="3.05283">
        <ele>566</ele>
        <time>2011-10-22T08:47:57Z</time>
      </trkpt>
      <trkpt lat="45.93637" lon="3.05322">
        <ele>565</ele>
        <time>2011-10-22T08:48:10Z</time>
      </trkpt>
      <trkpt lat="45.93617" lon="3.05356">
        <ele>564</ele>
        <time>2011-10-22T08:48:22Z</time>
      </trkpt>
      <trkpt lat="45.93598" lon="3.05391">
        <ele>563</ele>
        <time>2011-10-22T08:48:35Z</time>
      </trkpt>
      <trkpt lat="45.93588" lon="3.0543">
        <ele>565</ele>
        <time>2011-10-22T08:48:46Z</time>
      </trkpt>
      <trkpt lat="45.9358" lon="3.05475">
        <ele>560</ele>
        <time>2011-10-22T08:48:59Z</time>
      </trkpt>
      <trkpt lat="45.93588" lon="3.05518">
        <ele>577</ele>
        <time>2011-10-22T08:49:12Z</time>
      </trkpt>
      <trkpt lat="45.93563" lon="3.05517">
        <ele>570</ele>
        <time>2011-10-22T08:49:22Z</time>
      </trkpt>
      <trkpt lat="45.93535" lon="3.05496">
        <ele>557</ele>
        <time>2011-10-22T08:49:34Z</time>
      </trkpt>
      <trkpt lat="45.93508" lon="3.05474">
        <ele>554</ele>
        <time>2011-10-22T08:49:47Z</time>
      </trkpt>
      <trkpt lat="45.93483" lon="3.05462">
        <ele>536</ele>
        <time>2011-10-22T08:49:57Z</time>
      </trkpt>
      <trkpt lat="45.93451" lon="3.05483">
        <ele>532</ele>
        <time>2011-10-22T08:50:11Z</time>
      </trkpt>
      <trkpt lat="45.93432" lon="3.05519">
        <ele>542</ele>
        <time>2011-10-22T08:50:24Z</time>
      </trkpt>
      <trkpt lat="45.93416" lon="3.05556">
        <ele>529</ele>
        <time>2011-10-22T08:50:36Z</time>
      </trkpt>
      <trkpt lat="45.93392" lon="3.05585">
        <ele>539</ele>
        <time>2011-10-22T08:50:49Z</time>
      </trkpt>
      <trkpt lat="45.93367" lon="3.05606">
        <ele>533</ele>
        <time>2011-10-22T08:51:00Z</time>
      </trkpt>
      <trkpt lat="45.93345" lon="3.05642">
        <ele>533</ele>
        <time>2011-10-22T08:51:14Z</time>
      </trkpt>
      <trkpt lat="45.93324" lon="3.05675">
        <ele>521</ele>
        <time>2011-10-22T08:51:26Z</time>
      </trkpt>
      <trkpt lat="45.93311" lon="3.05719">
        <ele>516</ele>
        <time>2011-10-22T08:51:40Z</time>
      </trkpt>
      <trkpt lat="45.93311" lon="3.05762">
        <ele>526</ele>
        <time>2011-10-22T08:51:51Z</time>
      </trkpt>
      <trkpt lat="45.93302" lon="3.058">
        <ele>524</ele>
        <time>2011-10-22T08:52:03Z</time>
      </trkpt>
      <trkpt lat="45.93271" lon="3.05819">
        <ele>517</ele>
        <time>2011-10-22T08:52:16Z</time>
      </trkpt>
      <trkpt lat="45.93245" lon="3.05851">
        <ele>502</ele>
        <time>2011-10-22T08:52:30Z</time>
      </trkpt>
      <trkpt lat="45.93229" lon="3.05892">
        <ele>503</ele>
        <time>2011-10-22T08:52:43Z</time>
      </trkpt>
      <trkpt lat="45.93209" lon="3.05927">
        <ele>506</ele>
        <time>2011-10-22T08:52:56Z</time>
      </trkpt>
      <trkpt lat="45.93192" lon="3.05957">
        <ele>502</ele>
        <time>2011-10-22T08:53:06Z</time>
      </trkpt>
      <trkpt lat="45.93182" lon="3.05998">
        <ele>497</ele>
        <time>2011-10-22T08:53:19Z</time>
      </trkpt>
      <trkpt lat="45.93181" lon="3.06046">
        <ele>502</ele>
        <time>2011-10-22T08:53:32Z</time>
      </trkpt>
      <trkpt lat="45.93182" lon="3.06088">
        <ele>492</ele>
        <time>2011-10-22T08:53:44Z</time>
      </trkpt>
      <trkpt lat="45.93188" lon="3.06127">
        <ele>495</ele>
        <time>2011-10-22T08:53:55Z</time>
      </trkpt>
      <trkpt lat="45.93195" lon="3.06172">
        <ele>484</ele>
        <time>2011-10-22T08:54:08Z</time>
      </trkpt>
      <trkpt lat="45.932" lon="3.06218">
        <ele>483</ele>
        <time>2011-10-22T08:54:21Z</time>
      </trkpt>
      <trkpt lat="45.93207" lon="3.06267">
        <ele>474</ele>
        <time>2011-10-22T08:54:35Z</time>
      </trkpt>
      <trkpt lat="45.93211" lon="3.06308">
        <ele>472</ele>
        <time>2011-10-22T08:54:46Z</time>
      </trkpt>
      <trkpt lat="45.93214" lon="3.06348">
        <ele>462</ele>
        <time>2011-10-22T08:54:58Z</time>
      </trkpt>
      <trkpt lat="45.93226" lon="3.06384">
        <ele>460</ele>
        <time>2011-10-22T08:55:09Z</time>
      </trkpt>
      <trkpt lat="45.93249" lon="3.06408">
        <ele>461</ele>
        <time>2011-10-22T08:55:20Z</time>
      </trkpt>
      <trkpt lat="45.93223" lon="3.06395">
        <ele>459</ele>
        <time>2011-10-22T08:55:31Z</time>
      </trkpt>
      <trkpt lat="45.93198" lon="3.06366">
        <ele>457</ele>
        <time>2011-10-22T08:55:44Z</time>
      </trkpt>
      <trkpt lat="45.93182" lon="3.06323">
        <ele>461</ele>
        <time>2011-10-22T08:55:57Z</time>
      </trkpt>
      <trkpt lat="45.93168" lon="3.06283">
        <ele>466</ele>
        <time>2011-10-22T08:56:10Z</time>
      </trkpt>
      <trkpt lat="45.93151" lon="3.06243">
        <ele>457</ele>
        <time>2011-10-22T08:56:23Z</time>
      </trkpt>
      <trkpt lat="45.93128" lon="3.06205">
        <ele>456</ele>
        <time>2011-10-22T08:56:37Z</time>
      </trkpt>
      <trkpt lat="45.93112" lon="3.06164">
        <ele>458</ele>
        <time>2011-10-22T08:56:50Z</time>
      </trkpt>
      <trkpt lat="45.93105" lon="3.06125">
        <ele>459</ele>
        <time>2011-10-22T08:57:01Z</time>
      </trkpt>
      <trkpt lat="45.93101" lon="3.06081">
        <ele>459</ele>
        <time>2011-10-22T08:57:14Z</time>
      </trkpt>
      <trkpt lat="45.93092" lon="3.06049">
        <ele>461</ele>
        <time>2011-10-22T08:57:23Z</time>
      </trkpt>
      <trkpt lat="45.93092" lon="3.06094">
        <ele>454</ele>
        <time>2011-10-22T08:57:36Z</time>
      </trkpt>
      <trkpt lat="45.93096" lon="3.06136">
        <ele>457</ele>
        <time>2011-10-22T08:57:48Z</time>
      </trkpt>
      <trkpt lat="45.931" lon="3.06176">
        <ele>451</ele>
        <time>2011-10-22T08:57:59Z</time>
      </trkpt>
      <trkpt lat="45.93109" lon="3.06221">
        <ele>453</ele>
        <time>2011-10-22T08:58:12Z</time>
      </trkpt>
      <trkpt lat="45.93102" lon="3.06266">
        <ele>447</ele>
        <time>2011-10-22T08:58:25Z</time>
      </trkpt>
      <trkpt lat="45.93087" lon="3.06304">
        <ele>446</ele>
        <time>2011-10-22T08:58:37Z</time>
      </trkpt>
      <trkpt lat="45.93076" lon="3.06342">
        <ele>447</ele>
        <time>2011-10-22T08:58:48Z</time>
      </trkpt>
      <trkpt lat="45.93074" lon="3.06384">
        <ele>449</ele>
        <time>2011-10-22T08:59:00Z</time>
      </trkpt>
      <trkpt lat="45.93071" lon="3.06412">
        <ele>446</ele>
        <time>2011-10-22T08:59:08Z</time>
      </trkpt>
      <trkpt lat="45.93057" lon="3.06445">
        <ele>444</ele>
        <time>2011-10-22T08:59:19Z</time>
      </trkpt>
      <trkpt lat="45.93032" lon="3.06474">
        <ele>444</ele>
        <time>2011-10-22T08:59:32Z</time>
      </trkpt>
      <trkpt lat="45.93002" lon="3.06483">
        <ele>444</ele>
        <time>2011-10-22T08:59:44Z</time>
      </trkpt>
      <trkpt lat="45.92972" lon="3.06488">
        <ele>448</ele>
        <time>2011-10-22T08:59:56Z</time>
      </trkpt>
      <trkpt lat="45.92985" lon="3.06526">
        <ele>441</ele>
        <time>2011-10-22T09:00:08Z</time>
      </trkpt>
      <trkpt lat="45.92995" lon="3.0657">
        <ele>438</ele>
        <time>2011-10-22T09:00:21Z</time>
      </trkpt>
      <trkpt lat="45.92998" lon="3.06612">
        <ele>433</ele>
        <time>2011-10-22T09:00:33Z</time>
      </trkpt>
      <trkpt lat="45.92971" lon="3.0663">
        <ele>433</ele>
        <time>2011-10-22T09:00:45Z</time>
      </trkpt>
      <trkpt lat="45.92941" lon="3.06639">
        <ele>433</ele>
        <time>2011-10-22T09:00:57Z</time>
      </trkpt>
      <trkpt lat="45.9291" lon="3.06648">
        <ele>435</ele>
        <time>2011-10-22T09:01:09Z</time>
      </trkpt>
      <trkpt lat="45.9288" lon="3.0666">
        <ele>436</ele>
        <time>2011-10-22T09:01:22Z</time>
      </trkpt>
      <trkpt lat="45.92851" lon="3.0667">
        <ele>435</ele>
        <time>2011-10-22T09:01:34Z</time>
      </trkpt>
      <trkpt lat="45.92824" lon="3.06679">
        <ele>437</ele>
        <time>2011-10-22T09:01:45Z</time>
      </trkpt>
      <trkpt lat="45.92848" lon="3.0669">
        <ele>434</ele>
        <time>2011-10-22T09:01:55Z</time>
      </trkpt>
      <trkpt lat="45.92858" lon="3.0673">
        <ele>434</ele>
        <time>2011-10-22T09:02:07Z</time>
      </trkpt>
      <trkpt lat="45.92858" lon="3.06771">
        <ele>434</ele>
        <time>2011-10-22T09:02:19Z</time>
      </trkpt>
      <trkpt lat="45.92829" lon="3.06796">
        <ele>438</ele>
        <time>2011-10-22T09:02:32Z</time>
      </trkpt>
      <trkpt lat="45.92804" lon="3.06811">
        <ele>438</ele>
        <time>2011-10-22T09:02:43Z</time>
      </trkpt>
      <trkpt lat="45.92776" lon="3.06827">
        <ele>439</ele>
        <time>2011-10-22T09:02:55Z</time>
      </trkpt>
      <trkpt lat="45.92776" lon="3.06851">
        <ele>440</ele>
        <time>2011-10-22T09:03:01Z</time>
      </trkpt>
      <trkpt lat="45.9279" lon="3.06888">
        <ele>440</ele>
        <time>2011-10-22T09:03:13Z</time>
      </trkpt>
      <trkpt lat="45.92808" lon="3.06928">
        <ele>439</ele>
        <time>2011-10-22T09:03:27Z</time>
      </trkpt>
      <trkpt lat="45.92822" lon="3.06968">
        <ele>439</ele>
        <time>2011-10-22T09:03:39Z</time>
      </trkpt>
      <trkpt lat="45.9283" lon="3.0701">
        <ele>437</ele>
        <time>2011-10-22T09:03:51Z</time>
      </trkpt>
      <trkpt lat="45.92833" lon="3.07057">
        <ele>435</ele>
        <time>2011-10-22T09:04:04Z</time>
      </trkpt>
      <trkpt lat="45.92836" lon="3.07096">
        <ele>436</ele>
        <time>2011-10-22T09:04:15Z</time>
      </trkpt>
      <trkpt lat="45.92841" lon="3.07141">
        <ele>435</ele>
        <time>2011-10-22T09:04:28Z</time>
      </trkpt>
      <trkpt lat="45.92816" lon="3.07154">
        <ele>431</ele>
        <time>2011-10-22T09:04:39Z</time>
      </trkpt>
      <trkpt lat="45.92784" lon="3.0716">
        <ele>429</ele>
        <time>2011-10-22T09:04:52Z</time>
      </trkpt>
      <trkpt lat="45.92755" lon="3.07161">
        <ele>426</ele>
        <time>2011-10-22T09:05:03Z</time>
      </trkpt>
      <trkpt lat="45.92728" lon="3.07157">
        <ele>429</ele>
        <time>2011-10-22T09:05:14Z</time>
      </trkpt>
      <trkpt lat="45.927" lon="3.07154">
        <ele>430</ele>
        <time>2011-10-22T09:05:25Z</time>
      </trkpt>
      <trkpt lat="45.92675" lon="3.0714">
        <ele>431</ele>
        <time>2011-10-22T09:05:36Z</time>
      </trkpt>
      <trkpt lat="45.92645" lon="3.07122">
        <ele>437</ele>
        <time>2011-10-22T09:05:49Z</time>
      </trkpt>
      <trkpt lat="45.92618" lon="3.07116">
        <ele>438</ele>
        <time>2011-10-22T09:06:00Z</time>
      </trkpt>
      <trkpt lat="45.92591" lon="3.07112">
        <ele>440</ele>
        <time>2011-10-22T09:06:11Z</time>
      </trkpt>
      <trkpt lat="45.92564" lon="3.07109">
        <ele>442</ele>
        <time>2011-10-22T09:06:22Z</time>
      </trkpt>
      <trkpt lat="45.92534" lon="3.07094">
        <ele>442</ele>
        <time>2011-10-22T09:06:35Z</time>
      </trkpt>
      <trkpt lat="45.92512" lon="3.07068">
        <ele>446</ele>
        <time>2011-10-22T09:06:46Z</time>
      </trkpt>
      <trkpt lat="45.92508" lon="3.07064">
        <ele>446</ele>
        <time>2011-10-22T09:06:48Z</time>
      </trkpt>
    </trkseg>
  </trk>
</gpx>